HAKGR LOWS-EDHL
Flight info
| Callsign | HAKGR |
|---|---|
| Flight time | 1h 55m |
| Altitude | 22000 |
| Route | SBG DCT BADIT T700 STAUB L610 UPALA M726 LASTO M852 HLZ Z990 IRKIS DCT RARUP |
| Aircraft | B350/L-SBGR/C |
Departure
| Time | 2026-04-21 06:42 |
|---|---|
| Airport | Salzburg Airport (LOWS) |
Arrival
| Time | 2026-04-21 08:38 |
|---|---|
| Airport | Lübeck Blankensee Airport (EDHL) |
| Time | Latitude | Longitude | Altitude | Speed | Heading |
|---|---|---|---|---|---|
| 2026-04-21 06:16 | 47.79549 | 12.99800 | 1417 ft | 0 kts | 157° |
| 2026-04-21 06:37 | 47.79547 | 12.99820 | 1417 ft | 6 kts | 71° |
| 2026-04-21 06:37 | 47.79550 | 12.99904 | 1417 ft | 6 kts | 65° |
| 2026-04-21 06:37 | 47.79551 | 12.99905 | 1417 ft | 0 kts | 65° |
| 2026-04-21 06:38 | 47.79560 | 12.99935 | 1417 ft | 9 kts | 68° |
| 2026-04-21 06:38 | 47.79503 | 13.00020 | 1418 ft | 18 kts | 158° |
| 2026-04-21 06:38 | 47.79356 | 13.00116 | 1418 ft | 27 kts | 156° |
| 2026-04-21 06:38 | 47.79155 | 13.00241 | 1416 ft | 35 kts | 156° |
| 2026-04-21 06:39 | 47.78911 | 13.00394 | 1416 ft | 41 kts | 157° |
| 2026-04-21 06:39 | 47.78652 | 13.00558 | 1417 ft | 25 kts | 159° |
| 2026-04-21 06:39 | 47.78540 | 13.00630 | 1417 ft | 11 kts | 137° |
| 2026-04-21 06:39 | 47.78532 | 13.00717 | 1416 ft | 0 kts | 72° |
| 2026-04-21 06:40 | 47.78533 | 13.00721 | 1416 ft | 2 kts | 70° |
| 2026-04-21 06:40 | 47.78554 | 13.00788 | 1415 ft | 12 kts | 65° |
| 2026-04-21 06:40 | 47.78611 | 13.00853 | 1414 ft | 12 kts | 337° |
| 2026-04-21 06:41 | 47.78619 | 13.00848 | 1417 ft | 0 kts | 333° |
| 2026-04-21 06:41 | 47.78620 | 13.00847 | 1416 ft | 5 kts | 333° |
| 2026-04-21 06:41 | 47.78886 | 13.00678 | 1416 ft | 76 kts | 337° |
| 2026-04-21 06:41 | 47.79532 | 13.00264 | 1540 ft | 117 kts | 337° |
| 2026-04-21 06:42 | 47.80343 | 12.99787 | 1963 ft | 132 kts | 337° |
| 2026-04-21 06:42 | 47.81206 | 12.99245 | 2534 ft | 141 kts | 336° |
| 2026-04-21 06:42 | 47.82137 | 12.98639 | 3078 ft | 149 kts | 332° |
| 2026-04-21 06:42 | 47.82856 | 12.97517 | 3575 ft | 155 kts | 297° |
| 2026-04-21 06:43 | 47.83356 | 12.96072 | 4166 ft | 159 kts | 296° |
| 2026-04-21 06:43 | 47.83858 | 12.94586 | 4735 ft | 163 kts | 300° |
| 2026-04-21 06:43 | 47.84435 | 12.93157 | 5305 ft | 163 kts | 301° |
| 2026-04-21 06:43 | 47.85037 | 12.91686 | 5835 ft | 167 kts | 300° |
| 2026-04-21 06:44 | 47.85623 | 12.90174 | 6346 ft | 172 kts | 300° |
| 2026-04-21 06:44 | 47.86228 | 12.88596 | 6770 ft | 178 kts | 300° |
| 2026-04-21 06:44 | 47.86814 | 12.86974 | 7260 ft | 178 kts | 297° |
| 2026-04-21 06:44 | 47.87431 | 12.85351 | 7664 ft | 182 kts | 301° |
| 2026-04-21 06:45 | 47.88315 | 12.83999 | 7994 ft | 189 kts | 331° |
| 2026-04-21 06:45 | 47.89634 | 12.83707 | 8364 ft | 200 kts | 7° |
| 2026-04-21 06:45 | 47.90932 | 12.84515 | 8762 ft | 202 kts | 21° |
| 2026-04-21 06:45 | 47.92224 | 12.85334 | 9179 ft | 202 kts | 17° |
| 2026-04-21 06:46 | 47.93536 | 12.86093 | 9603 ft | 202 kts | 15° |
| 2026-04-21 06:46 | 47.94866 | 12.86802 | 10009 ft | 204 kts | 14° |
| 2026-04-21 06:46 | 47.96219 | 12.87492 | 10393 ft | 205 kts | 13° |
| 2026-04-21 06:46 | 47.97595 | 12.88131 | 10674 ft | 211 kts | 12° |
| 2026-04-21 06:47 | 47.99031 | 12.88749 | 10715 ft | 224 kts | 11° |
| 2026-04-21 06:47 | 48.00578 | 12.89314 | 10715 ft | 228 kts | 4° |
| 2026-04-21 06:47 | 48.02105 | 12.88970 | 10860 ft | 220 kts | 336° |
| 2026-04-21 06:47 | 48.03515 | 12.88166 | 11209 ft | 215 kts | 339° |
| 2026-04-21 06:48 | 48.04939 | 12.87552 | 11627 ft | 211 kts | 343° |
| 2026-04-21 06:48 | 48.06363 | 12.87056 | 12060 ft | 209 kts | 344° |
| 2026-04-21 06:48 | 48.07778 | 12.86562 | 12498 ft | 208 kts | 344° |
| 2026-04-21 06:48 | 48.09179 | 12.86056 | 12943 ft | 212 kts | 344° |
| 2026-04-21 06:49 | 48.10627 | 12.85529 | 13404 ft | 216 kts | 344° |
| 2026-04-21 06:49 | 48.12104 | 12.84995 | 13872 ft | 220 kts | 344° |
| 2026-04-21 06:49 | 48.13600 | 12.84455 | 14295 ft | 223 kts | 345° |
| 2026-04-21 06:49 | 48.15114 | 12.83907 | 14717 ft | 225 kts | 345° |
| 2026-04-21 06:50 | 48.16641 | 12.83373 | 15140 ft | 225 kts | 349° |
| 2026-04-21 06:50 | 48.18173 | 12.82984 | 15568 ft | 222 kts | 347° |
| 2026-04-21 06:50 | 48.19684 | 12.82529 | 16002 ft | 220 kts | 347° |
| 2026-04-21 06:50 | 48.21185 | 12.82092 | 16440 ft | 219 kts | 348° |
| 2026-04-21 06:51 | 48.22681 | 12.81673 | 16885 ft | 218 kts | 348° |
| 2026-04-21 06:51 | 48.24167 | 12.81259 | 17332 ft | 217 kts | 348° |
| 2026-04-21 06:51 | 48.25648 | 12.80843 | 17790 ft | 216 kts | 348° |
| 2026-04-21 06:51 | 48.27122 | 12.80428 | 18254 ft | 215 kts | 348° |
| 2026-04-21 06:52 | 48.28594 | 12.80013 | 18682 ft | 215 kts | 348° |
| 2026-04-21 06:52 | 48.30052 | 12.79602 | 19089 ft | 217 kts | 348° |
| 2026-04-21 06:52 | 48.31549 | 12.79180 | 19465 ft | 221 kts | 348° |
| 2026-04-21 06:52 | 48.33068 | 12.78752 | 19842 ft | 223 kts | 348° |
| 2026-04-21 06:53 | 48.34605 | 12.78319 | 20230 ft | 225 kts | 348° |
| 2026-04-21 06:53 | 48.36145 | 12.77884 | 20614 ft | 226 kts | 349° |
| 2026-04-21 06:53 | 48.37698 | 12.77446 | 21002 ft | 227 kts | 350° |
| 2026-04-21 06:53 | 48.39256 | 12.77005 | 21394 ft | 229 kts | 349° |
| 2026-04-21 06:54 | 48.40311 | 12.76707 | 21664 ft | 229 kts | 350° |
| 2026-04-21 06:54 | 48.41859 | 12.76269 | 22062 ft | 229 kts | 350° |
| 2026-04-21 06:54 | 48.43472 | 12.75813 | 22140 ft | 243 kts | 350° |
| 2026-04-21 06:54 | 48.45174 | 12.75332 | 22146 ft | 254 kts | 350° |
| 2026-04-21 06:55 | 48.46939 | 12.74832 | 22156 ft | 262 kts | 350° |
| 2026-04-21 06:55 | 48.48749 | 12.74318 | 22153 ft | 267 kts | 350° |
| 2026-04-21 06:55 | 48.50599 | 12.73794 | 22154 ft | 272 kts | 349° |
| 2026-04-21 06:55 | 48.52446 | 12.73269 | 22158 ft | 268 kts | 350° |
| 2026-04-21 06:56 | 48.54247 | 12.72757 | 22148 ft | 265 kts | 350° |
| 2026-04-21 06:56 | 48.56053 | 12.72243 | 22139 ft | 263 kts | 349° |
| 2026-04-21 06:56 | 48.57851 | 12.71731 | 22138 ft | 262 kts | 349° |
| 2026-04-21 06:56 | 48.59643 | 12.71220 | 22137 ft | 261 kts | 350° |
| 2026-04-21 06:57 | 48.61423 | 12.70712 | 22139 ft | 260 kts | 349° |
| 2026-04-21 06:57 | 48.63198 | 12.70206 | 22137 ft | 259 kts | 349° |
| 2026-04-21 06:57 | 48.64968 | 12.69700 | 22133 ft | 258 kts | 349° |
| 2026-04-21 06:57 | 48.66735 | 12.69196 | 22132 ft | 258 kts | 349° |
| 2026-04-21 06:58 | 48.68498 | 12.68691 | 22132 ft | 258 kts | 349° |
| 2026-04-21 06:58 | 48.70263 | 12.68186 | 22131 ft | 258 kts | 349° |
| 2026-04-21 06:58 | 48.72025 | 12.67682 | 22131 ft | 258 kts | 349° |
| 2026-04-21 06:58 | 48.73786 | 12.67177 | 22130 ft | 257 kts | 349° |
| 2026-04-21 06:59 | 48.75549 | 12.66671 | 22132 ft | 257 kts | 349° |
| 2026-04-21 06:59 | 48.77276 | 12.66027 | 22137 ft | 255 kts | 336° |
| 2026-04-21 06:59 | 48.78720 | 12.64498 | 22155 ft | 256 kts | 313° |
| 2026-04-21 06:59 | 48.79673 | 12.62262 | 22144 ft | 257 kts | 296° |
| 2026-04-21 07:00 | 48.80430 | 12.59794 | 22154 ft | 258 kts | 296° |
| 2026-04-21 07:00 | 48.81174 | 12.57321 | 22152 ft | 258 kts | 296° |
| 2026-04-21 07:00 | 48.81928 | 12.54849 | 22152 ft | 258 kts | 296° |
| 2026-04-21 07:00 | 48.82686 | 12.52379 | 22154 ft | 258 kts | 296° |
| 2026-04-21 07:01 | 48.83445 | 12.49896 | 22142 ft | 259 kts | 296° |
| 2026-04-21 07:01 | 48.84203 | 12.47410 | 22145 ft | 259 kts | 296° |
| 2026-04-21 07:01 | 48.85703 | 12.42484 | 22147 ft | 258 kts | 296° |
| 2026-04-21 07:02 | 48.86454 | 12.40016 | 22146 ft | 257 kts | 296° |
| 2026-04-21 07:02 | 48.87201 | 12.37558 | 22146 ft | 256 kts | 296° |
| 2026-04-21 07:02 | 48.87945 | 12.35107 | 22147 ft | 256 kts | 296° |
| 2026-04-21 07:02 | 48.88691 | 12.32646 | 22135 ft | 256 kts | 296° |
| 2026-04-21 07:03 | 48.89437 | 12.30183 | 22134 ft | 257 kts | 296° |
| 2026-04-21 07:03 | 48.90183 | 12.27719 | 22134 ft | 257 kts | 296° |
| 2026-04-21 07:03 | 48.90931 | 12.25246 | 22134 ft | 257 kts | 296° |
| 2026-04-21 07:03 | 48.91675 | 12.22783 | 22133 ft | 257 kts | 296° |
| 2026-04-21 07:04 | 48.92421 | 12.20309 | 22133 ft | 257 kts | 296° |
| 2026-04-21 07:04 | 48.93165 | 12.17841 | 22135 ft | 257 kts | 296° |
| 2026-04-21 07:04 | 48.93908 | 12.15372 | 22135 ft | 257 kts | 296° |
| 2026-04-21 07:04 | 48.94653 | 12.12897 | 22134 ft | 257 kts | 296° |
| 2026-04-21 07:05 | 48.95396 | 12.10425 | 22135 ft | 257 kts | 296° |
| 2026-04-21 07:05 | 48.96138 | 12.07953 | 22135 ft | 257 kts | 296° |
| 2026-04-21 07:05 | 48.96872 | 12.05506 | 22134 ft | 257 kts | 296° |
| 2026-04-21 07:05 | 48.97612 | 12.03034 | 22135 ft | 257 kts | 296° |
| 2026-04-21 07:06 | 48.98354 | 12.00554 | 22134 ft | 257 kts | 296° |
| 2026-04-21 07:06 | 48.99095 | 11.98077 | 22136 ft | 257 kts | 296° |
| 2026-04-21 07:06 | 48.99835 | 11.95599 | 22135 ft | 257 kts | 296° |
| 2026-04-21 07:06 | 49.00577 | 11.93111 | 22131 ft | 258 kts | 296° |
| 2026-04-21 07:07 | 49.01318 | 11.90628 | 22133 ft | 258 kts | 296° |
| 2026-04-21 07:07 | 49.02061 | 11.88132 | 22131 ft | 258 kts | 296° |
| 2026-04-21 07:07 | 49.02802 | 11.85642 | 22137 ft | 258 kts | 296° |
| 2026-04-21 07:07 | 49.03542 | 11.83151 | 22130 ft | 258 kts | 296° |
| 2026-04-21 07:08 | 49.04282 | 11.80658 | 22127 ft | 258 kts | 296° |
| 2026-04-21 07:08 | 49.05020 | 11.78170 | 22139 ft | 258 kts | 296° |
| 2026-04-21 07:08 | 49.05757 | 11.75680 | 22132 ft | 258 kts | 296° |
| 2026-04-21 07:08 | 49.06495 | 11.73188 | 22130 ft | 258 kts | 296° |
| 2026-04-21 07:09 | 49.07236 | 11.70682 | 22133 ft | 258 kts | 296° |
| 2026-04-21 07:09 | 49.07971 | 11.68193 | 22132 ft | 258 kts | 296° |
| 2026-04-21 07:09 | 49.08707 | 11.65700 | 22133 ft | 258 kts | 295° |
| 2026-04-21 07:09 | 49.09442 | 11.63207 | 22136 ft | 258 kts | 296° |
| 2026-04-21 07:10 | 49.10175 | 11.60716 | 22129 ft | 257 kts | 296° |
| 2026-04-21 07:10 | 49.10908 | 11.58223 | 22130 ft | 257 kts | 295° |
| 2026-04-21 07:10 | 49.11632 | 11.55761 | 22126 ft | 257 kts | 295° |
| 2026-04-21 07:10 | 49.12366 | 11.53261 | 22134 ft | 258 kts | 296° |
| 2026-04-21 07:11 | 49.13099 | 11.50759 | 22126 ft | 258 kts | 296° |
| 2026-04-21 07:11 | 49.13831 | 11.48260 | 22131 ft | 258 kts | 296° |
| 2026-04-21 07:11 | 49.14565 | 11.45754 | 22130 ft | 258 kts | 295° |
| 2026-04-21 07:11 | 49.15298 | 11.43244 | 22130 ft | 258 kts | 295° |
| 2026-04-21 07:12 | 49.16030 | 11.40738 | 22132 ft | 258 kts | 295° |
| 2026-04-21 07:12 | 49.16762 | 11.38230 | 22135 ft | 258 kts | 295° |
| 2026-04-21 07:12 | 49.17492 | 11.35724 | 22129 ft | 258 kts | 295° |
| 2026-04-21 07:12 | 49.18213 | 11.33249 | 22129 ft | 258 kts | 295° |
| 2026-04-21 07:13 | 49.18942 | 11.30740 | 22142 ft | 258 kts | 295° |
| 2026-04-21 07:13 | 49.19670 | 11.28234 | 22137 ft | 257 kts | 295° |
| 2026-04-21 07:13 | 49.20406 | 11.25741 | 22141 ft | 255 kts | 299° |
| 2026-04-21 07:13 | 49.21509 | 11.23671 | 22138 ft | 251 kts | 322° |
| 2026-04-21 07:14 | 49.23041 | 11.22432 | 22158 ft | 251 kts | 344° |
| 2026-04-21 07:14 | 49.24768 | 11.22143 | 22162 ft | 250 kts | 359° |
| 2026-04-21 07:14 | 49.26519 | 11.22157 | 22161 ft | 251 kts | 359° |
| 2026-04-21 07:14 | 49.28273 | 11.22182 | 22161 ft | 252 kts | 359° |
| 2026-04-21 07:15 | 49.30031 | 11.22193 | 22161 ft | 252 kts | 359° |
| 2026-04-21 07:15 | 49.31767 | 11.22200 | 22166 ft | 252 kts | 359° |
| 2026-04-21 07:15 | 49.33522 | 11.22209 | 22162 ft | 253 kts | 359° |
| 2026-04-21 07:15 | 49.35280 | 11.22220 | 22163 ft | 253 kts | 359° |
| 2026-04-21 07:16 | 49.37040 | 11.22230 | 22167 ft | 253 kts | 359° |
| 2026-04-21 07:16 | 49.38799 | 11.22240 | 22162 ft | 253 kts | 359° |
| 2026-04-21 07:16 | 49.40560 | 11.22250 | 22163 ft | 253 kts | 359° |
| 2026-04-21 07:16 | 49.42318 | 11.22260 | 22164 ft | 253 kts | 359° |
| 2026-04-21 07:17 | 49.44077 | 11.22270 | 22162 ft | 253 kts | 359° |
| 2026-04-21 07:17 | 49.45836 | 11.22280 | 22166 ft | 252 kts | 359° |
| 2026-04-21 07:17 | 49.47591 | 11.22290 | 22162 ft | 252 kts | 359° |
| 2026-04-21 07:17 | 49.49349 | 11.22300 | 22162 ft | 252 kts | 359° |
| 2026-04-21 07:18 | 49.51107 | 11.22310 | 22162 ft | 252 kts | 359° |
| 2026-04-21 07:18 | 49.52839 | 11.22320 | 22161 ft | 252 kts | 359° |
| 2026-04-21 07:18 | 49.54616 | 11.22330 | 22161 ft | 252 kts | 359° |
| 2026-04-21 07:18 | 49.56346 | 11.22340 | 22165 ft | 252 kts | 359° |
| 2026-04-21 07:19 | 49.58105 | 11.22350 | 22165 ft | 252 kts | 359° |
| 2026-04-21 07:19 | 49.59858 | 11.22360 | 22161 ft | 252 kts | 359° |
| 2026-04-21 07:19 | 49.61616 | 11.22370 | 22162 ft | 252 kts | 359° |
| 2026-04-21 07:19 | 49.63372 | 11.22380 | 22162 ft | 252 kts | 359° |
| 2026-04-21 07:20 | 49.65129 | 11.22390 | 22170 ft | 252 kts | 359° |
| 2026-04-21 07:20 | 49.66889 | 11.22401 | 22164 ft | 252 kts | 359° |
| 2026-04-21 07:20 | 49.68644 | 11.22411 | 22163 ft | 252 kts | 359° |
| 2026-04-21 07:20 | 49.70403 | 11.22421 | 22164 ft | 252 kts | 359° |
| 2026-04-21 07:21 | 49.72159 | 11.22431 | 22159 ft | 252 kts | 359° |
| 2026-04-21 07:21 | 49.73914 | 11.22441 | 22162 ft | 252 kts | 359° |
| 2026-04-21 07:21 | 49.75640 | 11.22451 | 22158 ft | 252 kts | 359° |
| 2026-04-21 07:21 | 49.77390 | 11.22461 | 22158 ft | 252 kts | 359° |
| 2026-04-21 07:22 | 49.79142 | 11.22471 | 22167 ft | 252 kts | 359° |
| 2026-04-21 07:22 | 49.80892 | 11.22482 | 22165 ft | 252 kts | 359° |
| 2026-04-21 07:22 | 49.82643 | 11.22492 | 22164 ft | 251 kts | 359° |
| 2026-04-21 07:22 | 49.84396 | 11.22502 | 22164 ft | 252 kts | 359° |
| 2026-04-21 07:23 | 49.86145 | 11.22512 | 22163 ft | 252 kts | 359° |
| 2026-04-21 07:23 | 49.87900 | 11.22522 | 22174 ft | 251 kts | 360° |
| 2026-04-21 07:23 | 49.89643 | 11.22533 | 22169 ft | 250 kts | 360° |
| 2026-04-21 07:23 | 49.91383 | 11.22543 | 22167 ft | 250 kts | 359° |
| 2026-04-21 07:24 | 49.93119 | 11.22552 | 22170 ft | 250 kts | 360° |
| 2026-04-21 07:24 | 49.94857 | 11.22563 | 22167 ft | 249 kts | 360° |
| 2026-04-21 07:24 | 49.96591 | 11.22573 | 22168 ft | 249 kts | 359° |
| 2026-04-21 07:24 | 49.98324 | 11.22583 | 22172 ft | 249 kts | 360° |
| 2026-04-21 07:25 | 50.00034 | 11.22593 | 22165 ft | 249 kts | 360° |
| 2026-04-21 07:25 | 50.01766 | 11.22603 | 22171 ft | 249 kts | 360° |
| 2026-04-21 07:25 | 50.03502 | 11.22614 | 22167 ft | 249 kts | 359° |
| 2026-04-21 07:25 | 50.05232 | 11.22623 | 22167 ft | 249 kts | 360° |
| 2026-04-21 07:26 | 50.06965 | 11.22633 | 22173 ft | 249 kts | 360° |
| 2026-04-21 07:26 | 50.08699 | 11.22644 | 22167 ft | 249 kts | 359° |
| 2026-04-21 07:26 | 50.10434 | 11.22654 | 22168 ft | 249 kts | 359° |
| 2026-04-21 07:26 | 50.12164 | 11.22664 | 22181 ft | 248 kts | 0° |
| 2026-04-21 07:27 | 50.13889 | 11.22674 | 22177 ft | 247 kts | 0° |
| 2026-04-21 07:27 | 50.15617 | 11.22685 | 22178 ft | 248 kts | 0° |
| 2026-04-21 07:27 | 50.17339 | 11.22694 | 22184 ft | 248 kts | 0° |
| 2026-04-21 07:27 | 50.19065 | 11.22705 | 22185 ft | 247 kts | 0° |
| 2026-04-21 07:28 | 50.20790 | 11.22715 | 22185 ft | 248 kts | 0° |
| 2026-04-21 07:28 | 50.22502 | 11.22725 | 22174 ft | 249 kts | 0° |
| 2026-04-21 07:28 | 50.24231 | 11.22734 | 22185 ft | 248 kts | 0° |
| 2026-04-21 07:28 | 50.25960 | 11.22745 | 22186 ft | 248 kts | 0° |
| 2026-04-21 07:29 | 50.27682 | 11.22756 | 22182 ft | 247 kts | 0° |
| 2026-04-21 07:29 | 50.29405 | 11.22765 | 22184 ft | 247 kts | 0° |
| 2026-04-21 07:29 | 50.31133 | 11.22776 | 22180 ft | 248 kts | 0° |
| 2026-04-21 07:29 | 50.32859 | 11.22786 | 22182 ft | 248 kts | 0° |
| 2026-04-21 07:30 | 50.34581 | 11.22796 | 22200 ft | 247 kts | 0° |
| 2026-04-21 07:30 | 50.36296 | 11.22773 | 22195 ft | 246 kts | 355° |
| 2026-04-21 07:30 | 50.38001 | 11.22494 | 22190 ft | 246 kts | 355° |
| 2026-04-21 07:30 | 50.39706 | 11.22249 | 22196 ft | 247 kts | 355° |
| 2026-04-21 07:31 | 50.41419 | 11.22002 | 22199 ft | 246 kts | 355° |
| 2026-04-21 07:31 | 50.43127 | 11.21744 | 22199 ft | 247 kts | 355° |
| 2026-04-21 07:31 | 50.44843 | 11.21482 | 22206 ft | 248 kts | 355° |
| 2026-04-21 07:31 | 50.46541 | 11.21226 | 22200 ft | 249 kts | 355° |
| 2026-04-21 07:32 | 50.48262 | 11.20967 | 22201 ft | 248 kts | 355° |
| 2026-04-21 07:32 | 50.49979 | 11.20707 | 22208 ft | 248 kts | 355° |
| 2026-04-21 07:32 | 50.51700 | 11.20446 | 22208 ft | 248 kts | 355° |
| 2026-04-21 07:32 | 50.53419 | 11.20186 | 22197 ft | 249 kts | 355° |
| 2026-04-21 07:33 | 50.55145 | 11.19926 | 22207 ft | 248 kts | 355° |
| 2026-04-21 07:33 | 50.56865 | 11.19665 | 22208 ft | 248 kts | 355° |
| 2026-04-21 07:33 | 50.58582 | 11.19404 | 22207 ft | 247 kts | 355° |
| 2026-04-21 07:33 | 50.60296 | 11.19143 | 22204 ft | 247 kts | 355° |
| 2026-04-21 07:34 | 50.62013 | 11.18883 | 22215 ft | 248 kts | 355° |
| 2026-04-21 07:34 | 50.63733 | 11.18621 | 22219 ft | 248 kts | 355° |
| 2026-04-21 07:34 | 50.65455 | 11.18360 | 22214 ft | 248 kts | 355° |
| 2026-04-21 07:34 | 50.67173 | 11.18098 | 22220 ft | 248 kts | 355° |
| 2026-04-21 07:35 | 50.68888 | 11.17836 | 22213 ft | 248 kts | 355° |
| 2026-04-21 07:35 | 50.70612 | 11.17574 | 22213 ft | 249 kts | 355° |
| 2026-04-21 07:35 | 50.72309 | 11.17314 | 22217 ft | 248 kts | 355° |
| 2026-04-21 07:35 | 50.74046 | 11.17050 | 22220 ft | 247 kts | 355° |
| 2026-04-21 07:36 | 50.75743 | 11.16790 | 22224 ft | 248 kts | 355° |
| 2026-04-21 07:36 | 50.77459 | 11.16528 | 22224 ft | 248 kts | 355° |
| 2026-04-21 07:36 | 50.79181 | 11.16265 | 22231 ft | 248 kts | 355° |
| 2026-04-21 07:36 | 50.80904 | 11.16001 | 22226 ft | 249 kts | 355° |
| 2026-04-21 07:37 | 50.82631 | 11.15735 | 22229 ft | 250 kts | 355° |
| 2026-04-21 07:37 | 50.84364 | 11.15469 | 22230 ft | 250 kts | 355° |
| 2026-04-21 07:37 | 50.86094 | 11.15204 | 22235 ft | 250 kts | 355° |
| 2026-04-21 07:37 | 50.87832 | 11.14938 | 22236 ft | 251 kts | 355° |
| 2026-04-21 07:38 | 50.89568 | 11.14671 | 22238 ft | 251 kts | 355° |
| 2026-04-21 07:38 | 50.91307 | 11.14403 | 22240 ft | 251 kts | 355° |
| 2026-04-21 07:38 | 50.93045 | 11.14135 | 22243 ft | 251 kts | 355° |
| 2026-04-21 07:38 | 50.94762 | 11.13871 | 22236 ft | 251 kts | 355° |
| 2026-04-21 07:39 | 50.96501 | 11.13603 | 22234 ft | 251 kts | 355° |
| 2026-04-21 07:39 | 50.98243 | 11.13334 | 22235 ft | 251 kts | 355° |
| 2026-04-21 07:39 | 50.99982 | 11.13065 | 22238 ft | 251 kts | 355° |
| 2026-04-21 07:39 | 51.01719 | 11.12797 | 22240 ft | 251 kts | 355° |
| 2026-04-21 07:40 | 51.03458 | 11.12528 | 22243 ft | 251 kts | 355° |
| 2026-04-21 07:40 | 51.05196 | 11.12259 | 22244 ft | 251 kts | 356° |
| 2026-04-21 07:40 | 51.06934 | 11.11990 | 22241 ft | 251 kts | 356° |
| 2026-04-21 07:40 | 51.08669 | 11.11721 | 22243 ft | 251 kts | 356° |
| 2026-04-21 07:41 | 51.10404 | 11.11452 | 22244 ft | 251 kts | 356° |
| 2026-04-21 07:41 | 51.12141 | 11.11181 | 22246 ft | 250 kts | 355° |
| 2026-04-21 07:41 | 51.13262 | 11.10808 | 22246 ft | 250 kts | 341° |
| 2026-04-21 07:41 | 51.14852 | 11.09692 | 22250 ft | 250 kts | 338° |
| 2026-04-21 07:42 | 51.16444 | 11.08545 | 22249 ft | 251 kts | 338° |
| 2026-04-21 07:42 | 51.18040 | 11.07407 | 22247 ft | 252 kts | 338° |
| 2026-04-21 07:42 | 51.20164 | 11.05897 | 22251 ft | 252 kts | 338° |
| 2026-04-21 07:42 | 51.21249 | 11.05124 | 22249 ft | 253 kts | 338° |
| 2026-04-21 07:43 | 51.22852 | 11.03980 | 22256 ft | 253 kts | 338° |
| 2026-04-21 07:43 | 51.24437 | 11.02847 | 22247 ft | 253 kts | 338° |
| 2026-04-21 07:43 | 51.26047 | 11.01696 | 22233 ft | 253 kts | 338° |
| 2026-04-21 07:43 | 51.27657 | 11.00545 | 22238 ft | 253 kts | 338° |
| 2026-04-21 07:44 | 51.29265 | 10.99394 | 22237 ft | 253 kts | 339° |
| 2026-04-21 07:44 | 51.30873 | 10.98242 | 22244 ft | 253 kts | 339° |
| 2026-04-21 07:44 | 51.32480 | 10.97090 | 22241 ft | 253 kts | 339° |
| 2026-04-21 07:44 | 51.34092 | 10.95933 | 22241 ft | 254 kts | 339° |
| 2026-04-21 07:45 | 51.35712 | 10.94771 | 22239 ft | 254 kts | 339° |
| 2026-04-21 07:45 | 51.37322 | 10.93617 | 22242 ft | 253 kts | 340° |
| 2026-04-21 07:45 | 51.39001 | 10.93006 | 22245 ft | 246 kts | 358° |
| 2026-04-21 07:45 | 51.40713 | 10.92784 | 22251 ft | 247 kts | 358° |
| 2026-04-21 07:46 | 51.42433 | 10.92557 | 22255 ft | 248 kts | 358° |
| 2026-04-21 07:46 | 51.44157 | 10.92322 | 22256 ft | 249 kts | 358° |
| 2026-04-21 07:46 | 51.45864 | 10.92088 | 22258 ft | 249 kts | 358° |
| 2026-04-21 07:46 | 51.47592 | 10.91853 | 22259 ft | 249 kts | 358° |
| 2026-04-21 07:47 | 51.49324 | 10.91616 | 22265 ft | 249 kts | 358° |
| 2026-04-21 07:47 | 51.51052 | 10.91381 | 22265 ft | 249 kts | 358° |
| 2026-04-21 07:47 | 51.52784 | 10.91145 | 22265 ft | 250 kts | 358° |
| 2026-04-21 07:47 | 51.54515 | 10.90907 | 22262 ft | 249 kts | 359° |
| 2026-04-21 07:48 | 51.56245 | 10.90671 | 22263 ft | 250 kts | 359° |
| 2026-04-21 07:48 | 51.57980 | 10.90435 | 22263 ft | 250 kts | 359° |
| 2026-04-21 07:48 | 51.59710 | 10.90197 | 22271 ft | 250 kts | 359° |
| 2026-04-21 07:48 | 51.61445 | 10.89960 | 22272 ft | 250 kts | 359° |
| 2026-04-21 07:49 | 51.63176 | 10.89722 | 22270 ft | 250 kts | 359° |
| 2026-04-21 07:49 | 51.64907 | 10.89485 | 22270 ft | 250 kts | 359° |
| 2026-04-21 07:49 | 51.66638 | 10.89247 | 22270 ft | 250 kts | 359° |
| 2026-04-21 07:49 | 51.68351 | 10.89011 | 22273 ft | 250 kts | 359° |
| 2026-04-21 07:50 | 51.70106 | 10.88770 | 22273 ft | 250 kts | 359° |
| 2026-04-21 07:50 | 51.71816 | 10.88535 | 22273 ft | 250 kts | 359° |
| 2026-04-21 07:50 | 51.73552 | 10.88296 | 22274 ft | 250 kts | 359° |
| 2026-04-21 07:50 | 51.75288 | 10.88056 | 22276 ft | 250 kts | 359° |
| 2026-04-21 07:51 | 51.77022 | 10.87817 | 22275 ft | 250 kts | 359° |
| 2026-04-21 07:51 | 51.78756 | 10.87578 | 22273 ft | 250 kts | 360° |
| 2026-04-21 07:51 | 51.80493 | 10.87337 | 22273 ft | 250 kts | 360° |
| 2026-04-21 07:51 | 51.82230 | 10.87097 | 22272 ft | 250 kts | 360° |
| 2026-04-21 07:52 | 51.83961 | 10.86858 | 22277 ft | 250 kts | 360° |
| 2026-04-21 07:52 | 51.85700 | 10.86617 | 22277 ft | 250 kts | 360° |
| 2026-04-21 07:52 | 51.87435 | 10.86377 | 22277 ft | 250 kts | 360° |
| 2026-04-21 07:52 | 51.89151 | 10.86138 | 22283 ft | 250 kts | 360° |
| 2026-04-21 07:53 | 51.90906 | 10.85895 | 22285 ft | 250 kts | 360° |
| 2026-04-21 07:53 | 51.92621 | 10.85656 | 22285 ft | 250 kts | 360° |
| 2026-04-21 07:53 | 51.94358 | 10.85415 | 22285 ft | 250 kts | 360° |
| 2026-04-21 07:53 | 51.96095 | 10.85173 | 22285 ft | 250 kts | 360° |
| 2026-04-21 07:54 | 51.97826 | 10.84932 | 22285 ft | 250 kts | 360° |
| 2026-04-21 07:54 | 51.99563 | 10.84690 | 22287 ft | 250 kts | 360° |
| 2026-04-21 07:54 | 52.01298 | 10.84448 | 22286 ft | 250 kts | 360° |
| 2026-04-21 07:54 | 52.03031 | 10.84206 | 22282 ft | 250 kts | 1° |
| 2026-04-21 07:55 | 52.04765 | 10.83964 | 22289 ft | 250 kts | 1° |
| 2026-04-21 07:55 | 52.06503 | 10.83721 | 22290 ft | 250 kts | 1° |
| 2026-04-21 07:55 | 52.08209 | 10.83482 | 22296 ft | 250 kts | 1° |
| 2026-04-21 07:55 | 52.09945 | 10.83239 | 22296 ft | 250 kts | 1° |
| 2026-04-21 07:56 | 52.11678 | 10.82996 | 22297 ft | 250 kts | 1° |
| 2026-04-21 07:56 | 52.13414 | 10.82753 | 22298 ft | 250 kts | 1° |
| 2026-04-21 07:56 | 52.15147 | 10.82510 | 22300 ft | 250 kts | 1° |
| 2026-04-21 07:56 | 52.16881 | 10.82266 | 22301 ft | 250 kts | 1° |
| 2026-04-21 07:57 | 52.18617 | 10.82022 | 22304 ft | 250 kts | 1° |
| 2026-04-21 07:57 | 52.20356 | 10.81777 | 22306 ft | 250 kts | 1° |
| 2026-04-21 07:57 | 52.22092 | 10.81533 | 22307 ft | 251 kts | 1° |
| 2026-04-21 07:57 | 52.23831 | 10.81288 | 22307 ft | 251 kts | 1° |
| 2026-04-21 07:58 | 52.25568 | 10.81043 | 22309 ft | 250 kts | 1° |
| 2026-04-21 07:58 | 52.27304 | 10.80798 | 22298 ft | 250 kts | 2° |
| 2026-04-21 07:58 | 52.29015 | 10.80556 | 22307 ft | 250 kts | 2° |
| 2026-04-21 07:58 | 52.30777 | 10.80307 | 22309 ft | 251 kts | 2° |
| 2026-04-21 07:59 | 52.32496 | 10.80065 | 22309 ft | 251 kts | 2° |
| 2026-04-21 07:59 | 52.34240 | 10.79817 | 22310 ft | 251 kts | 2° |
| 2026-04-21 07:59 | 52.35980 | 10.79571 | 22308 ft | 251 kts | 2° |
| 2026-04-21 07:59 | 52.37709 | 10.79449 | 22309 ft | 248 kts | 4° |
| 2026-04-21 08:00 | 52.39438 | 10.79270 | 22311 ft | 249 kts | 3° |
| 2026-04-21 08:00 | 52.41172 | 10.79077 | 22309 ft | 250 kts | 4° |
| 2026-04-21 08:00 | 52.42905 | 10.78921 | 22313 ft | 250 kts | 4° |
| 2026-04-21 08:00 | 52.44642 | 10.78773 | 22309 ft | 250 kts | 4° |
| 2026-04-21 08:01 | 52.46382 | 10.78618 | 22313 ft | 250 kts | 4° |
| 2026-04-21 08:01 | 52.48125 | 10.78459 | 22314 ft | 250 kts | 4° |
| 2026-04-21 08:01 | 52.49872 | 10.78301 | 22313 ft | 251 kts | 4° |
| 2026-04-21 08:02 | 52.53356 | 10.77986 | 22309 ft | 250 kts | 5° |
| 2026-04-21 08:02 | 52.55098 | 10.77828 | 22307 ft | 251 kts | 5° |
| 2026-04-21 08:02 | 52.56843 | 10.77671 | 22309 ft | 251 kts | 5° |
| 2026-04-21 08:02 | 52.58585 | 10.77512 | 22306 ft | 251 kts | 5° |
| 2026-04-21 08:03 | 52.60328 | 10.77354 | 22304 ft | 251 kts | 5° |
| 2026-04-21 08:03 | 52.62073 | 10.77196 | 22308 ft | 251 kts | 5° |
| 2026-04-21 08:03 | 52.63820 | 10.77037 | 22306 ft | 251 kts | 5° |
| 2026-04-21 08:03 | 52.65567 | 10.76878 | 22306 ft | 251 kts | 5° |
| 2026-04-21 08:04 | 52.67312 | 10.76719 | 22310 ft | 251 kts | 5° |
| 2026-04-21 08:04 | 52.69056 | 10.76560 | 22304 ft | 251 kts | 5° |
| 2026-04-21 08:04 | 52.70803 | 10.76401 | 22305 ft | 251 kts | 5° |
| 2026-04-21 08:04 | 52.72547 | 10.76242 | 22305 ft | 251 kts | 5° |
| 2026-04-21 08:05 | 52.74292 | 10.76083 | 22313 ft | 251 kts | 5° |
| 2026-04-21 08:05 | 52.76012 | 10.75926 | 22312 ft | 251 kts | 5° |
| 2026-04-21 08:05 | 52.77759 | 10.75765 | 22310 ft | 251 kts | 5° |
| 2026-04-21 08:05 | 52.79505 | 10.75606 | 22310 ft | 251 kts | 5° |
| 2026-04-21 08:06 | 52.81252 | 10.75446 | 22312 ft | 251 kts | 5° |
| 2026-04-21 08:06 | 52.82995 | 10.75286 | 22311 ft | 251 kts | 5° |
| 2026-04-21 08:06 | 52.84743 | 10.75126 | 22311 ft | 251 kts | 5° |
| 2026-04-21 08:06 | 52.86492 | 10.74965 | 22314 ft | 251 kts | 5° |
| 2026-04-21 08:07 | 52.88238 | 10.74805 | 22315 ft | 251 kts | 5° |
| 2026-04-21 08:07 | 52.89984 | 10.74644 | 22314 ft | 251 kts | 5° |
| 2026-04-21 08:07 | 52.91732 | 10.74483 | 22315 ft | 251 kts | 5° |
| 2026-04-21 08:07 | 52.93479 | 10.74322 | 22314 ft | 251 kts | 5° |
| 2026-04-21 08:08 | 52.95226 | 10.74161 | 22315 ft | 251 kts | 5° |
| 2026-04-21 08:08 | 52.96973 | 10.74000 | 22320 ft | 251 kts | 5° |
| 2026-04-21 08:08 | 52.98718 | 10.73839 | 22320 ft | 251 kts | 5° |
| 2026-04-21 08:08 | 53.00464 | 10.73677 | 22320 ft | 251 kts | 5° |
| 2026-04-21 08:09 | 53.02210 | 10.73516 | 22321 ft | 251 kts | 5° |
| 2026-04-21 08:09 | 53.03960 | 10.73354 | 22321 ft | 252 kts | 5° |
| 2026-04-21 08:09 | 53.05708 | 10.73192 | 22321 ft | 252 kts | 5° |
| 2026-04-21 08:09 | 53.07434 | 10.73032 | 22322 ft | 251 kts | 5° |
| 2026-04-21 08:10 | 53.09177 | 10.72870 | 22323 ft | 251 kts | 5° |
| 2026-04-21 08:10 | 53.10923 | 10.72708 | 22323 ft | 251 kts | 5° |
| 2026-04-21 08:10 | 53.12676 | 10.72545 | 22323 ft | 251 kts | 5° |
| 2026-04-21 08:10 | 53.14423 | 10.72383 | 22323 ft | 251 kts | 5° |
| 2026-04-21 08:11 | 53.16171 | 10.72220 | 22325 ft | 251 kts | 5° |
| 2026-04-21 08:11 | 53.17915 | 10.72057 | 22325 ft | 251 kts | 5° |
| 2026-04-21 08:11 | 53.19664 | 10.71894 | 22325 ft | 251 kts | 5° |
| 2026-04-21 08:11 | 53.21388 | 10.71733 | 22324 ft | 251 kts | 5° |
| 2026-04-21 08:12 | 53.23133 | 10.71570 | 22322 ft | 251 kts | 5° |
| 2026-04-21 08:12 | 53.24877 | 10.71407 | 22321 ft | 251 kts | 5° |
| 2026-04-21 08:12 | 53.26630 | 10.71243 | 22316 ft | 251 kts | 5° |
| 2026-04-21 08:12 | 53.28372 | 10.71080 | 22333 ft | 251 kts | 5° |
| 2026-04-21 08:13 | 53.30118 | 10.70917 | 22335 ft | 251 kts | 5° |
| 2026-04-21 08:13 | 53.31867 | 10.70753 | 22335 ft | 252 kts | 5° |
| 2026-04-21 08:13 | 53.33615 | 10.70588 | 22336 ft | 252 kts | 5° |
| 2026-04-21 08:13 | 53.35362 | 10.70424 | 22336 ft | 252 kts | 5° |
| 2026-04-21 08:14 | 53.37113 | 10.70260 | 22338 ft | 252 kts | 5° |
| 2026-04-21 08:14 | 53.38861 | 10.70096 | 22338 ft | 252 kts | 5° |
| 2026-04-21 08:14 | 53.40610 | 10.69931 | 22338 ft | 252 kts | 5° |
| 2026-04-21 08:14 | 53.42359 | 10.69766 | 22338 ft | 252 kts | 5° |
| 2026-04-21 08:15 | 53.44110 | 10.69601 | 22333 ft | 252 kts | 5° |
| 2026-04-21 08:15 | 53.45860 | 10.69435 | 22337 ft | 252 kts | 5° |
| 2026-04-21 08:15 | 53.47608 | 10.69270 | 22342 ft | 252 kts | 5° |
| 2026-04-21 08:15 | 53.49338 | 10.69107 | 22344 ft | 252 kts | 5° |
| 2026-04-21 08:16 | 53.51088 | 10.68941 | 22347 ft | 252 kts | 5° |
| 2026-04-21 08:16 | 53.52835 | 10.68775 | 22351 ft | 251 kts | 5° |
| 2026-04-21 08:16 | 53.54581 | 10.68610 | 22353 ft | 252 kts | 5° |
| 2026-04-21 08:16 | 53.56332 | 10.68444 | 22354 ft | 252 kts | 5° |
| 2026-04-21 08:17 | 53.58083 | 10.68278 | 22360 ft | 252 kts | 5° |
| 2026-04-21 08:17 | 53.59833 | 10.68111 | 22362 ft | 252 kts | 5° |
| 2026-04-21 08:17 | 53.61576 | 10.67731 | 22359 ft | 255 kts | 349° |
| 2026-04-21 08:17 | 53.63077 | 10.66272 | 22359 ft | 246 kts | 326° |
| 2026-04-21 08:18 | 53.64106 | 10.64000 | 22102 ft | 249 kts | 301° |
| 2026-04-21 08:18 | 53.64537 | 10.61137 | 21621 ft | 256 kts | 279° |
| 2026-04-21 08:18 | 53.64688 | 10.58132 | 21122 ft | 258 kts | 278° |
| 2026-04-21 08:18 | 53.64826 | 10.55102 | 20639 ft | 259 kts | 278° |
| 2026-04-21 08:19 | 53.64977 | 10.52081 | 20160 ft | 259 kts | 278° |
| 2026-04-21 08:19 | 53.65134 | 10.49046 | 19688 ft | 259 kts | 278° |
| 2026-04-21 08:19 | 53.65287 | 10.46022 | 19228 ft | 259 kts | 278° |
| 2026-04-21 08:19 | 53.65566 | 10.43112 | 18759 ft | 251 kts | 296° |
| 2026-04-21 08:20 | 53.66426 | 10.40644 | 18250 ft | 240 kts | 319° |
| 2026-04-21 08:20 | 53.67687 | 10.38934 | 17741 ft | 228 kts | 337° |
| 2026-04-21 08:20 | 53.69062 | 10.37630 | 17226 ft | 226 kts | 340° |
| 2026-04-21 08:20 | 53.70446 | 10.36390 | 16737 ft | 225 kts | 340° |
| 2026-04-21 08:21 | 53.71857 | 10.35343 | 16240 ft | 219 kts | 348° |
| 2026-04-21 08:21 | 53.73190 | 10.34075 | 15746 ft | 230 kts | 319° |
| 2026-04-21 08:21 | 53.73890 | 10.31611 | 15278 ft | 242 kts | 280° |
| 2026-04-21 08:21 | 53.73630 | 10.28819 | 14827 ft | 243 kts | 244° |
| 2026-04-21 08:22 | 53.72836 | 10.26318 | 14373 ft | 241 kts | 237° |
| 2026-04-21 08:22 | 53.71971 | 10.23891 | 13889 ft | 241 kts | 236° |
| 2026-04-21 08:22 | 53.71097 | 10.21473 | 13382 ft | 240 kts | 237° |
| 2026-04-21 08:22 | 53.70673 | 10.18805 | 12870 ft | 238 kts | 276° |
| 2026-04-21 08:23 | 53.71216 | 10.16317 | 12365 ft | 227 kts | 315° |
| 2026-04-21 08:23 | 53.72470 | 10.14932 | 11818 ft | 211 kts | 354° |
| 2026-04-21 08:23 | 53.73845 | 10.15199 | 11290 ft | 195 kts | 34° |
| 2026-04-21 08:23 | 53.74696 | 10.16850 | 10773 ft | 187 kts | 69° |
| 2026-04-21 08:24 | 53.75017 | 10.18963 | 10248 ft | 186 kts | 82° |
| 2026-04-21 08:24 | 53.75127 | 10.21148 | 9657 ft | 188 kts | 85° |
| 2026-04-21 08:24 | 53.75204 | 10.23358 | 9087 ft | 189 kts | 85° |
| 2026-04-21 08:24 | 53.75165 | 10.25574 | 8514 ft | 189 kts | 95° |
| 2026-04-21 08:25 | 53.74838 | 10.27733 | 7956 ft | 192 kts | 108° |
| 2026-04-21 08:25 | 53.74293 | 10.29800 | 7399 ft | 193 kts | 111° |
| 2026-04-21 08:25 | 53.73717 | 10.31866 | 6857 ft | 195 kts | 111° |
| 2026-04-21 08:25 | 53.73145 | 10.33908 | 6289 ft | 195 kts | 111° |
| 2026-04-21 08:26 | 53.72457 | 10.35851 | 5712 ft | 197 kts | 133° |
| 2026-04-21 08:26 | 53.71174 | 10.36697 | 5245 ft | 207 kts | 175° |
| 2026-04-21 08:26 | 53.69829 | 10.35878 | 4842 ft | 210 kts | 218° |
| 2026-04-21 08:26 | 53.68994 | 10.33921 | 4508 ft | 203 kts | 241° |
| 2026-04-21 08:27 | 53.68336 | 10.31839 | 4178 ft | 198 kts | 242° |
| 2026-04-21 08:27 | 53.67730 | 10.29838 | 3970 ft | 189 kts | 246° |
| 2026-04-21 08:27 | 53.67676 | 10.27743 | 3727 ft | 177 kts | 299° |
| 2026-04-21 08:27 | 53.68484 | 10.26432 | 3526 ft | 155 kts | 352° |
| 2026-04-21 08:28 | 53.69413 | 10.26740 | 3319 ft | 133 kts | 47° |
| 2026-04-21 08:28 | 53.69836 | 10.28065 | 3119 ft | 128 kts | 69° |
| 2026-04-21 08:28 | 53.70054 | 10.28995 | 2984 ft | 127 kts | 69° |
| 2026-04-21 08:28 | 53.70375 | 10.30324 | 2938 ft | 119 kts | 62° |
| 2026-04-21 08:29 | 53.70871 | 10.31387 | 2911 ft | 115 kts | 51° |
| 2026-04-21 08:29 | 53.71438 | 10.32475 | 2942 ft | 129 kts | 51° |
| 2026-04-21 08:29 | 53.72068 | 10.33666 | 3016 ft | 141 kts | 51° |
| 2026-04-21 08:29 | 53.72712 | 10.34955 | 3005 ft | 142 kts | 54° |
| 2026-04-21 08:30 | 53.73295 | 10.36239 | 2955 ft | 133 kts | 54° |
| 2026-04-21 08:30 | 53.73735 | 10.37505 | 2905 ft | 119 kts | 65° |
| 2026-04-21 08:30 | 53.74109 | 10.38755 | 2925 ft | 124 kts | 62° |
| 2026-04-21 08:30 | 53.74465 | 10.40163 | 3013 ft | 138 kts | 70° |
| 2026-04-21 08:31 | 53.74746 | 10.41741 | 3060 ft | 140 kts | 73° |
| 2026-04-21 08:31 | 53.75013 | 10.43282 | 3085 ft | 134 kts | 73° |
| 2026-04-21 08:31 | 53.75262 | 10.44759 | 3032 ft | 123 kts | 72° |
| 2026-04-21 08:31 | 53.75532 | 10.46021 | 2988 ft | 107 kts | 72° |
| 2026-04-21 08:32 | 53.75749 | 10.47152 | 2988 ft | 97 kts | 72° |
| 2026-04-21 08:32 | 53.75953 | 10.48232 | 2818 ft | 91 kts | 71° |
| 2026-04-21 08:32 | 53.76144 | 10.49164 | 2725 ft | 78 kts | 71° |
| 2026-04-21 08:32 | 53.76315 | 10.50086 | 2592 ft | 89 kts | 70° |
| 2026-04-21 08:33 | 53.76521 | 10.51126 | 2540 ft | 97 kts | 71° |
| 2026-04-21 08:33 | 53.76745 | 10.52186 | 2449 ft | 95 kts | 68° |
| 2026-04-21 08:33 | 53.76948 | 10.53265 | 2261 ft | 100 kts | 75° |
| 2026-04-21 08:33 | 53.77134 | 10.54425 | 2034 ft | 103 kts | 71° |
| 2026-04-21 08:34 | 53.77381 | 10.55515 | 1868 ft | 100 kts | 68° |
| 2026-04-21 08:34 | 53.77580 | 10.56606 | 1791 ft | 95 kts | 77° |
| 2026-04-21 08:34 | 53.77766 | 10.57676 | 1609 ft | 97 kts | 64° |
| 2026-04-21 08:34 | 53.77988 | 10.58735 | 1412 ft | 94 kts | 75° |
| 2026-04-21 08:35 | 53.78140 | 10.59766 | 1328 ft | 90 kts | 69° |
| 2026-04-21 08:35 | 53.78384 | 10.60729 | 1234 ft | 88 kts | 71° |
| 2026-04-21 08:35 | 53.78540 | 10.61742 | 1123 ft | 89 kts | 73° |
| 2026-04-21 08:35 | 53.78746 | 10.62745 | 1039 ft | 91 kts | 69° |
| 2026-04-21 08:36 | 53.78938 | 10.63794 | 933 ft | 94 kts | 70° |
| 2026-04-21 08:36 | 53.79133 | 10.64845 | 808 ft | 96 kts | 68° |
| 2026-04-21 08:36 | 53.79357 | 10.65928 | 672 ft | 99 kts | 68° |
| 2026-04-21 08:36 | 53.79597 | 10.67055 | 526 ft | 104 kts | 70° |
| 2026-04-21 08:37 | 53.79820 | 10.68214 | 382 ft | 105 kts | 66° |
| 2026-04-21 08:37 | 53.80045 | 10.69390 | 222 ft | 103 kts | 66° |
| 2026-04-21 08:37 | 53.80266 | 10.70526 | 89 ft | 101 kts | 66° |
| 2026-04-21 08:37 | 53.80463 | 10.71524 | 62 ft | 75 kts | 70° |
| 2026-04-21 08:38 | 53.80573 | 10.72147 | 55 ft | 35 kts | 74° |
| 2026-04-21 08:38 | 53.80630 | 10.72412 | 55 ft | 21 kts | 72° |
| 2026-04-21 08:38 | 53.80658 | 10.72638 | 55 ft | 11 kts | 82° |
| 2026-04-21 08:38 | 53.80677 | 10.72626 | 55 ft | 14 kts | 251° |
| 2026-04-21 08:39 | 53.80634 | 10.72409 | 55 ft | 26 kts | 251° |
| 2026-04-21 08:39 | 53.80568 | 10.72100 | 54 ft | 20 kts | 250° |
| 2026-04-21 08:39 | 53.80598 | 10.71880 | 55 ft | 23 kts | 292° |
| 2026-04-21 08:39 | 53.80654 | 10.71648 | 53 ft | 22 kts | 290° |
| 2026-04-21 08:40 | 53.80630 | 10.71402 | 56 ft | 25 kts | 252° |
| 2026-04-21 08:40 | 53.80582 | 10.71148 | 56 ft | 20 kts | 251° |
| 2026-04-21 08:40 | 53.80532 | 10.70881 | 51 ft | 28 kts | 252° |
| 2026-04-21 08:40 | 53.80470 | 10.70572 | 51 ft | 22 kts | 250° |
| 2026-04-21 08:41 | 53.80449 | 10.70469 | 54 ft | 3 kts | 252° |
| 2026-04-21 08:41 | 53.80477 | 10.70410 | 53 ft | 11 kts | 329° |
| 2026-04-21 08:41 | 53.80537 | 10.70335 | 54 ft | 10 kts | 330° |
| 2026-04-21 08:41 | 53.80598 | 10.70396 | 54 ft | 6 kts | 50° |
| 2026-04-21 08:42 | 53.80613 | 10.70462 | 52 ft | 9 kts | 44° |
| 2026-04-21 08:42 | 53.80633 | 10.70490 | 54 ft | 0 kts | 360° |
| 2026-04-21 10:21 | 53.80640 | 10.70474 | 49 ft | 5 kts | 263° |
| 2026-04-21 10:21 | 53.80589 | 10.70379 | 54 ft | 16 kts | 226° |
| 2026-04-21 10:21 | 53.80513 | 10.70365 | 52 ft | 15 kts | 142° |
| 2026-04-21 10:22 | 53.80429 | 10.70466 | 54 ft | 0 kts | 143° |
| 2026-04-21 10:22 | 53.80427 | 10.70467 | 54 ft | 2 kts | 144° |
| 2026-04-21 10:22 | 53.80371 | 10.70533 | 53 ft | 18 kts | 144° |
| 2026-04-21 10:23 | 53.80278 | 10.70603 | 55 ft | 12 kts | 218° |
| 2026-04-21 10:23 | 53.80240 | 10.70409 | 52 ft | 22 kts | 255° |
| 2026-04-21 10:23 | 53.80227 | 10.70190 | 58 ft | 10 kts | 265° |
| 2026-04-21 10:23 | 53.80206 | 10.70211 | 54 ft | 0 kts | 72° |
| 2026-04-21 10:24 | 53.80214 | 10.70250 | 52 ft | 23 kts | 71° |
| 2026-04-21 10:24 | 53.80341 | 10.70913 | 56 ft | 91 kts | 70° |
| 2026-04-21 10:24 | 53.80547 | 10.72121 | 297 ft | 115 kts | 71° |
| 2026-04-21 10:25 | 53.80756 | 10.73492 | 814 ft | 125 kts | 72° |
| 2026-04-21 10:25 | 53.81030 | 10.74871 | 1476 ft | 124 kts | 64° |
| 2026-04-21 10:25 | 53.81364 | 10.76243 | 1941 ft | 133 kts | 72° |
| 2026-04-21 10:25 | 53.81638 | 10.77793 | 2425 ft | 140 kts | 69° |
| 2026-04-21 10:26 | 53.81959 | 10.79357 | 2910 ft | 141 kts | 71° |
| 2026-04-21 10:26 | 53.82284 | 10.80939 | 3422 ft | 146 kts | 71° |
| 2026-04-21 10:26 | 53.82603 | 10.82625 | 3799 ft | 153 kts | 72° |
| 2026-04-21 10:26 | 53.82905 | 10.84402 | 4110 ft | 159 kts | 73° |
| 2026-04-21 10:27 | 53.82906 | 10.86284 | 4399 ft | 167 kts | 102° |
| 2026-04-21 10:27 | 53.82340 | 10.88049 | 4740 ft | 174 kts | 122° |
| 2026-04-21 10:27 | 53.81571 | 10.89622 | 5176 ft | 173 kts | 124° |
| 2026-04-21 10:27 | 53.80770 | 10.91176 | 5510 ft | 178 kts | 126° |
| 2026-04-21 10:28 | 53.79908 | 10.92693 | 5850 ft | 181 kts | 131° |
| 2026-04-21 10:28 | 53.78805 | 10.93817 | 6076 ft | 196 kts | 157° |
| 2026-04-21 10:28 | 53.77404 | 10.94050 | 6261 ft | 206 kts | 175° |
| 2026-04-21 10:28 | 53.75950 | 10.94014 | 6361 ft | 213 kts | 176° |
| 2026-04-21 10:29 | 53.74464 | 10.94017 | 6563 ft | 213 kts | 175° |
| 2026-04-21 10:29 | 53.72955 | 10.94043 | 6653 ft | 218 kts | 176° |
| 2026-04-21 10:29 | 53.71463 | 10.93951 | 6976 ft | 212 kts | 179° |
| 2026-04-21 10:29 | 53.69990 | 10.93781 | 7300 ft | 213 kts | 179° |
| 2026-04-21 10:30 | 53.68506 | 10.93606 | 7638 ft | 214 kts | 179° |
| 2026-04-21 10:30 | 53.67038 | 10.93443 | 7983 ft | 214 kts | 179° |
| 2026-04-21 10:30 | 53.65546 | 10.93282 | 8343 ft | 216 kts | 178° |
| 2026-04-21 10:30 | 53.64046 | 10.93117 | 8699 ft | 216 kts | 178° |
| 2026-04-21 10:31 | 53.62537 | 10.92953 | 9065 ft | 217 kts | 178° |
| 2026-04-21 10:31 | 53.61029 | 10.92787 | 9436 ft | 218 kts | 178° |
| 2026-04-21 10:31 | 53.59513 | 10.92621 | 9817 ft | 219 kts | 178° |
| 2026-04-21 10:31 | 53.57989 | 10.92455 | 10191 ft | 220 kts | 178° |
| 2026-04-21 10:32 | 53.56458 | 10.92288 | 10538 ft | 221 kts | 178° |
| 2026-04-21 10:32 | 53.54918 | 10.92120 | 10884 ft | 222 kts | 178° |
| 2026-04-21 10:32 | 53.53374 | 10.91952 | 11235 ft | 223 kts | 178° |
| 2026-04-21 10:32 | 53.51817 | 10.91782 | 11590 ft | 224 kts | 177° |
| 2026-04-21 10:33 | 53.50254 | 10.91612 | 11949 ft | 226 kts | 177° |
| 2026-04-21 10:33 | 53.48679 | 10.91441 | 12325 ft | 227 kts | 177° |
| 2026-04-21 10:33 | 53.47097 | 10.91269 | 12691 ft | 228 kts | 177° |
| 2026-04-21 10:33 | 53.45525 | 10.91098 | 13058 ft | 232 kts | 177° |
| 2026-04-21 10:34 | 53.43894 | 10.90924 | 13435 ft | 238 kts | 177° |
| 2026-04-21 10:34 | 53.42226 | 10.90742 | 13823 ft | 242 kts | 177° |
| 2026-04-21 10:34 | 53.40537 | 10.90558 | 14205 ft | 245 kts | 177° |
| 2026-04-21 10:34 | 53.38831 | 10.90372 | 14551 ft | 247 kts | 177° |
| 2026-04-21 10:35 | 53.37105 | 10.90185 | 14899 ft | 249 kts | 176° |
| 2026-04-21 10:35 | 53.35374 | 10.89997 | 15250 ft | 249 kts | 176° |
| 2026-04-21 10:35 | 53.33647 | 10.89809 | 15603 ft | 248 kts | 176° |
| 2026-04-21 10:35 | 53.31929 | 10.89623 | 15955 ft | 246 kts | 176° |
| 2026-04-21 10:36 | 53.30232 | 10.89439 | 16313 ft | 243 kts | 176° |
| 2026-04-21 10:36 | 53.28545 | 10.89258 | 16673 ft | 242 kts | 176° |
| 2026-04-21 10:36 | 53.26868 | 10.89078 | 17037 ft | 241 kts | 176° |
| 2026-04-21 10:36 | 53.25202 | 10.88899 | 17408 ft | 240 kts | 176° |
| 2026-04-21 10:37 | 53.23556 | 10.88723 | 17789 ft | 239 kts | 176° |
| 2026-04-21 10:37 | 53.21896 | 10.88544 | 18170 ft | 239 kts | 176° |
| 2026-04-21 10:37 | 53.20232 | 10.88366 | 18554 ft | 239 kts | 176° |
| 2026-04-21 10:37 | 53.18574 | 10.88188 | 18902 ft | 239 kts | 176° |
| 2026-04-21 10:38 | 53.16914 | 10.88009 | 19237 ft | 239 kts | 175° |
| 2026-04-21 10:38 | 53.15255 | 10.87832 | 19585 ft | 239 kts | 175° |
| 2026-04-21 10:38 | 53.13599 | 10.87655 | 19929 ft | 239 kts | 175° |
| 2026-04-21 10:38 | 53.11942 | 10.87477 | 20281 ft | 238 kts | 175° |
| 2026-04-21 10:39 | 53.10290 | 10.87299 | 20637 ft | 238 kts | 175° |
| 2026-04-21 10:39 | 53.08636 | 10.87123 | 20997 ft | 237 kts | 175° |
| 2026-04-21 10:39 | 53.06990 | 10.86947 | 21360 ft | 237 kts | 174° |
| 2026-04-21 10:39 | 53.05364 | 10.86774 | 21723 ft | 236 kts | 174° |
| 2026-04-21 10:40 | 53.03728 | 10.86599 | 22092 ft | 236 kts | 174° |
| 2026-04-21 10:40 | 53.02081 | 10.86423 | 22472 ft | 236 kts | 174° |
| 2026-04-21 10:40 | 53.00440 | 10.86250 | 22854 ft | 236 kts | 174° |
| 2026-04-21 10:40 | 52.98802 | 10.86075 | 23238 ft | 235 kts | 174° |
| 2026-04-21 10:41 | 52.97131 | 10.85904 | 23331 ft | 247 kts | 174° |
| 2026-04-21 10:41 | 52.95375 | 10.85723 | 23341 ft | 259 kts | 175° |
| 2026-04-21 10:41 | 52.93561 | 10.85523 | 23339 ft | 262 kts | 175° |
| 2026-04-21 10:41 | 52.91735 | 10.85320 | 23334 ft | 264 kts | 175° |
| 2026-04-21 10:42 | 52.89901 | 10.85126 | 23338 ft | 265 kts | 175° |
| 2026-04-21 10:42 | 52.88057 | 10.84933 | 23338 ft | 266 kts | 175° |
| 2026-04-21 10:42 | 52.86204 | 10.84737 | 23335 ft | 267 kts | 175° |
| 2026-04-21 10:42 | 52.84352 | 10.84540 | 23334 ft | 267 kts | 175° |
| 2026-04-21 10:43 | 52.82491 | 10.84343 | 23337 ft | 267 kts | 175° |
| 2026-04-21 10:43 | 52.80636 | 10.84147 | 23335 ft | 268 kts | 175° |
| 2026-04-21 10:43 | 52.78775 | 10.83952 | 23336 ft | 268 kts | 175° |
| 2026-04-21 10:43 | 52.76939 | 10.83758 | 23336 ft | 268 kts | 175° |
| 2026-04-21 10:44 | 52.75070 | 10.83561 | 23336 ft | 268 kts | 175° |
| 2026-04-21 10:44 | 52.73204 | 10.83366 | 23329 ft | 268 kts | 175° |
| 2026-04-21 10:44 | 52.71338 | 10.83169 | 23330 ft | 268 kts | 175° |
| 2026-04-21 10:44 | 52.69473 | 10.82973 | 23329 ft | 268 kts | 175° |
| 2026-04-21 10:45 | 52.67629 | 10.82780 | 23330 ft | 268 kts | 175° |
| 2026-04-21 10:45 | 52.65767 | 10.82585 | 23327 ft | 268 kts | 175° |
| 2026-04-21 10:45 | 52.63905 | 10.82391 | 23326 ft | 268 kts | 175° |
| 2026-04-21 10:45 | 52.62040 | 10.82195 | 23327 ft | 268 kts | 175° |
| 2026-04-21 10:46 | 52.60179 | 10.82001 | 23326 ft | 268 kts | 175° |
| 2026-04-21 10:46 | 52.58316 | 10.81807 | 23326 ft | 268 kts | 175° |
| 2026-04-21 10:46 | 52.56454 | 10.81613 | 23326 ft | 268 kts | 175° |
| 2026-04-21 10:46 | 52.54593 | 10.81418 | 23324 ft | 268 kts | 175° |
| 2026-04-21 10:47 | 52.52732 | 10.81225 | 23323 ft | 268 kts | 175° |
| 2026-04-21 10:47 | 52.50874 | 10.81031 | 23339 ft | 268 kts | 175° |
| 2026-04-21 10:47 | 52.49007 | 10.80838 | 23328 ft | 269 kts | 176° |
| 2026-04-21 10:47 | 52.47141 | 10.80643 | 23324 ft | 268 kts | 176° |
| 2026-04-21 10:48 | 52.45277 | 10.80450 | 23324 ft | 269 kts | 175° |
| 2026-04-21 10:48 | 52.43436 | 10.80259 | 23323 ft | 268 kts | 176° |
| 2026-04-21 10:48 | 52.41571 | 10.80066 | 23324 ft | 268 kts | 175° |
| 2026-04-21 10:48 | 52.39706 | 10.79873 | 23324 ft | 268 kts | 176° |
| 2026-04-21 10:49 | 52.37839 | 10.79680 | 23328 ft | 269 kts | 176° |
| 2026-04-21 10:49 | 52.35985 | 10.79560 | 23322 ft | 262 kts | 168° |
| 2026-04-21 10:49 | 52.34180 | 10.79820 | 23324 ft | 260 kts | 166° |
| 2026-04-21 10:49 | 52.32369 | 10.80084 | 23330 ft | 261 kts | 167° |
| 2026-04-21 10:50 | 52.31170 | 10.80249 | 23323 ft | 262 kts | 167° |
| 2026-04-21 10:50 | 52.28739 | 10.80580 | 23324 ft | 262 kts | 167° |
| 2026-04-21 10:50 | 52.26921 | 10.80833 | 23343 ft | 262 kts | 168° |
| 2026-04-21 10:50 | 52.25099 | 10.81087 | 23321 ft | 263 kts | 167° |
| 2026-04-21 10:51 | 52.23270 | 10.81341 | 23320 ft | 264 kts | 167° |
| 2026-04-21 10:51 | 52.21438 | 10.81593 | 23321 ft | 264 kts | 167° |
| 2026-04-21 10:51 | 52.19628 | 10.81844 | 23322 ft | 265 kts | 167° |
| 2026-04-21 10:51 | 52.17791 | 10.82097 | 23321 ft | 265 kts | 167° |
| 2026-04-21 10:52 | 52.15955 | 10.82350 | 23321 ft | 265 kts | 167° |
| 2026-04-21 10:52 | 52.14116 | 10.82604 | 23319 ft | 265 kts | 167° |
| 2026-04-21 10:52 | 52.12367 | 10.83213 | 23318 ft | 251 kts | 148° |
| 2026-04-21 10:52 | 52.10835 | 10.84507 | 23317 ft | 248 kts | 144° |
| 2026-04-21 10:53 | 52.09311 | 10.85841 | 23335 ft | 249 kts | 144° |
| 2026-04-21 10:53 | 52.07779 | 10.87176 | 23314 ft | 250 kts | 144° |
| 2026-04-21 10:53 | 52.06242 | 10.88505 | 23315 ft | 250 kts | 144° |
| 2026-04-21 10:53 | 52.04704 | 10.89835 | 23312 ft | 250 kts | 144° |
| 2026-04-21 10:54 | 52.03685 | 10.90717 | 23314 ft | 250 kts | 144° |
| 2026-04-21 10:54 | 52.01643 | 10.92483 | 23326 ft | 251 kts | 144° |
| 2026-04-21 10:54 | 52.00098 | 10.93819 | 23310 ft | 252 kts | 145° |
| 2026-04-21 10:54 | 51.99049 | 10.94725 | 23309 ft | 253 kts | 145° |
| 2026-04-21 10:55 | 51.97494 | 10.96066 | 23310 ft | 254 kts | 145° |
| 2026-04-21 10:55 | 51.95955 | 10.97393 | 23305 ft | 254 kts | 145° |
| 2026-04-21 10:55 | 51.94396 | 10.98736 | 23307 ft | 254 kts | 145° |
| 2026-04-21 10:55 | 51.92835 | 11.00079 | 23304 ft | 254 kts | 145° |
| 2026-04-21 10:56 | 51.91273 | 11.01423 | 23304 ft | 254 kts | 145° |
| 2026-04-21 10:56 | 51.89709 | 11.02767 | 23304 ft | 254 kts | 145° |
| 2026-04-21 10:56 | 51.88145 | 11.04109 | 23304 ft | 254 kts | 145° |
| 2026-04-21 10:56 | 51.86580 | 11.05453 | 23305 ft | 254 kts | 145° |
| 2026-04-21 10:57 | 51.85015 | 11.06795 | 23298 ft | 254 kts | 145° |
| 2026-04-21 10:57 | 51.83452 | 11.08134 | 23298 ft | 255 kts | 145° |
| 2026-04-21 10:57 | 51.81886 | 11.09474 | 23298 ft | 255 kts | 145° |
| 2026-04-21 10:57 | 51.80319 | 11.10814 | 23298 ft | 255 kts | 145° |
| 2026-04-21 10:58 | 51.78753 | 11.12153 | 23301 ft | 255 kts | 145° |
| 2026-04-21 10:58 | 51.77184 | 11.13493 | 23298 ft | 255 kts | 145° |
| 2026-04-21 10:58 | 51.75615 | 11.14832 | 23298 ft | 255 kts | 145° |
| 2026-04-21 10:58 | 51.74068 | 11.16152 | 23289 ft | 256 kts | 146° |
| 2026-04-21 10:59 | 51.72494 | 11.17492 | 23290 ft | 256 kts | 146° |
| 2026-04-21 10:59 | 51.70915 | 11.18836 | 23289 ft | 256 kts | 146° |
| 2026-04-21 10:59 | 51.69335 | 11.20181 | 23289 ft | 257 kts | 146° |
| 2026-04-21 10:59 | 51.67753 | 11.21524 | 23290 ft | 257 kts | 146° |
| 2026-04-21 11:00 | 51.66171 | 11.22867 | 23289 ft | 256 kts | 146° |
| 2026-04-21 11:00 | 51.64594 | 11.24205 | 23285 ft | 256 kts | 146° |
| 2026-04-21 11:00 | 51.63013 | 11.25546 | 23288 ft | 256 kts | 146° |
| 2026-04-21 11:00 | 51.61434 | 11.26885 | 23287 ft | 257 kts | 146° |
| 2026-04-21 11:01 | 51.59852 | 11.28225 | 23290 ft | 256 kts | 146° |
| 2026-04-21 11:01 | 51.58275 | 11.29559 | 23288 ft | 256 kts | 146° |
| 2026-04-21 11:01 | 51.56695 | 11.30895 | 23287 ft | 256 kts | 146° |
| 2026-04-21 11:02 | 51.53543 | 11.33557 | 23279 ft | 256 kts | 146° |
| 2026-04-21 11:02 | 51.51967 | 11.34887 | 23278 ft | 256 kts | 146° |
| 2026-04-21 11:02 | 51.50388 | 11.36219 | 23278 ft | 256 kts | 146° |
| 2026-04-21 11:02 | 51.48835 | 11.37527 | 23280 ft | 256 kts | 147° |
| 2026-04-21 11:03 | 51.47256 | 11.38857 | 23274 ft | 257 kts | 147° |
| 2026-04-21 11:03 | 51.45671 | 11.40189 | 23274 ft | 257 kts | 147° |
| 2026-04-21 11:03 | 51.44087 | 11.41520 | 23266 ft | 257 kts | 147° |
| 2026-04-21 11:03 | 51.42499 | 11.42854 | 23267 ft | 258 kts | 147° |
| 2026-04-21 11:04 | 51.40911 | 11.44186 | 23268 ft | 258 kts | 147° |
| 2026-04-21 11:04 | 51.39219 | 11.45160 | 23264 ft | 264 kts | 169° |
| 2026-04-21 11:04 | 51.37386 | 11.45372 | 23272 ft | 264 kts | 172° |
| 2026-04-21 11:04 | 51.35546 | 11.45533 | 23275 ft | 265 kts | 172° |
| 2026-04-21 11:05 | 51.33701 | 11.45705 | 23274 ft | 266 kts | 172° |
| 2026-04-21 11:05 | 51.31853 | 11.45889 | 23272 ft | 266 kts | 172° |
| 2026-04-21 11:05 | 51.29998 | 11.46072 | 23273 ft | 267 kts | 172° |
| 2026-04-21 11:05 | 51.28146 | 11.46252 | 23274 ft | 267 kts | 172° |
| 2026-04-21 11:06 | 51.26294 | 11.46430 | 23271 ft | 267 kts | 172° |
| 2026-04-21 11:06 | 51.24438 | 11.46608 | 23271 ft | 267 kts | 173° |
| 2026-04-21 11:06 | 51.22584 | 11.46786 | 23267 ft | 267 kts | 173° |
| 2026-04-21 11:06 | 51.20723 | 11.46966 | 23266 ft | 267 kts | 173° |
| 2026-04-21 11:07 | 51.18892 | 11.47142 | 23269 ft | 268 kts | 173° |
| 2026-04-21 11:07 | 51.17030 | 11.47320 | 23266 ft | 268 kts | 173° |
| 2026-04-21 11:07 | 51.15165 | 11.47499 | 23266 ft | 268 kts | 173° |
| 2026-04-21 11:07 | 51.13309 | 11.47677 | 23263 ft | 268 kts | 173° |
| 2026-04-21 11:08 | 51.11448 | 11.47855 | 23263 ft | 268 kts | 173° |
| 2026-04-21 11:08 | 51.09589 | 11.48033 | 23263 ft | 268 kts | 173° |
| 2026-04-21 11:08 | 51.07728 | 11.48212 | 23264 ft | 268 kts | 173° |
| 2026-04-21 11:08 | 51.05867 | 11.48389 | 23263 ft | 268 kts | 173° |
| 2026-04-21 11:09 | 51.04004 | 11.48567 | 23259 ft | 268 kts | 173° |
| 2026-04-21 11:09 | 51.02144 | 11.48745 | 23261 ft | 268 kts | 173° |
| 2026-04-21 11:09 | 51.00280 | 11.48924 | 23260 ft | 268 kts | 174° |
| 2026-04-21 11:09 | 50.98417 | 11.49101 | 23260 ft | 268 kts | 174° |
| 2026-04-21 11:10 | 50.96555 | 11.49279 | 23256 ft | 268 kts | 174° |
| 2026-04-21 11:10 | 50.94691 | 11.49457 | 23252 ft | 269 kts | 174° |
| 2026-04-21 11:10 | 50.92844 | 11.49633 | 23254 ft | 269 kts | 174° |
| 2026-04-21 11:10 | 50.90977 | 11.49810 | 23255 ft | 269 kts | 174° |
| 2026-04-21 11:11 | 50.89106 | 11.49989 | 23253 ft | 269 kts | 174° |
| 2026-04-21 11:11 | 50.87235 | 11.50166 | 23254 ft | 269 kts | 174° |
| 2026-04-21 11:11 | 50.85364 | 11.50344 | 23249 ft | 269 kts | 174° |
| 2026-04-21 11:11 | 50.83489 | 11.50522 | 23248 ft | 269 kts | 174° |
| 2026-04-21 11:12 | 50.81619 | 11.50699 | 23247 ft | 269 kts | 174° |
| 2026-04-21 11:12 | 50.79749 | 11.50876 | 23245 ft | 269 kts | 174° |
| 2026-04-21 11:12 | 50.77876 | 11.51054 | 23243 ft | 269 kts | 174° |
| 2026-04-21 11:12 | 50.76009 | 11.51230 | 23228 ft | 269 kts | 174° |
| 2026-04-21 11:13 | 50.74131 | 11.51407 | 23231 ft | 270 kts | 175° |
| 2026-04-21 11:13 | 50.72254 | 11.51585 | 23232 ft | 271 kts | 175° |
| 2026-04-21 11:13 | 50.70369 | 11.51763 | 23234 ft | 271 kts | 175° |
| 2026-04-21 11:13 | 50.68511 | 11.51937 | 23230 ft | 272 kts | 174° |
| 2026-04-21 11:14 | 50.66621 | 11.52116 | 23226 ft | 272 kts | 174° |
| 2026-04-21 11:14 | 50.64726 | 11.52294 | 23229 ft | 273 kts | 174° |
| 2026-04-21 11:14 | 50.62833 | 11.52472 | 23231 ft | 273 kts | 175° |
| 2026-04-21 11:14 | 50.60939 | 11.52649 | 23231 ft | 273 kts | 174° |
| 2026-04-21 11:15 | 50.59032 | 11.52829 | 23231 ft | 275 kts | 174° |
| 2026-04-21 11:15 | 50.57121 | 11.53008 | 23221 ft | 275 kts | 174° |
| 2026-04-21 11:15 | 50.55262 | 11.53514 | 23220 ft | 269 kts | 155° |
| 2026-04-21 11:15 | 50.53548 | 11.54643 | 23225 ft | 267 kts | 154° |
| 2026-04-21 11:16 | 50.51834 | 11.55793 | 23225 ft | 268 kts | 154° |
| 2026-04-21 11:16 | 50.50112 | 11.56938 | 23221 ft | 268 kts | 154° |
| 2026-04-21 11:16 | 50.48386 | 11.58078 | 23213 ft | 269 kts | 154° |
| 2026-04-21 11:16 | 50.46656 | 11.59221 | 23210 ft | 270 kts | 153° |
| 2026-04-21 11:17 | 50.44948 | 11.60351 | 23206 ft | 270 kts | 153° |
| 2026-04-21 11:17 | 50.43213 | 11.61498 | 23205 ft | 271 kts | 153° |
| 2026-04-21 11:17 | 50.41474 | 11.62647 | 23202 ft | 271 kts | 153° |
| 2026-04-21 11:17 | 50.39733 | 11.63796 | 23200 ft | 272 kts | 154° |
| 2026-04-21 11:18 | 50.37984 | 11.64948 | 23199 ft | 272 kts | 154° |
| 2026-04-21 11:18 | 50.36234 | 11.66101 | 23198 ft | 272 kts | 154° |
| 2026-04-21 11:18 | 50.34479 | 11.67256 | 23193 ft | 273 kts | 154° |
| 2026-04-21 11:18 | 50.32732 | 11.68406 | 23194 ft | 273 kts | 154° |
| 2026-04-21 11:19 | 50.30983 | 11.69555 | 23193 ft | 273 kts | 154° |
| 2026-04-21 11:19 | 50.29234 | 11.70703 | 23193 ft | 273 kts | 154° |
| 2026-04-21 11:19 | 50.27483 | 11.71852 | 23183 ft | 274 kts | 155° |
| 2026-04-21 11:19 | 50.25719 | 11.73009 | 23182 ft | 275 kts | 155° |
| 2026-04-21 11:20 | 50.23950 | 11.74168 | 23184 ft | 276 kts | 154° |
| 2026-04-21 11:20 | 50.22172 | 11.75331 | 23187 ft | 277 kts | 154° |
| 2026-04-21 11:20 | 50.20410 | 11.76484 | 23187 ft | 278 kts | 155° |
| 2026-04-21 11:20 | 50.18623 | 11.77651 | 23189 ft | 278 kts | 155° |
| 2026-04-21 11:21 | 50.16838 | 11.78816 | 23187 ft | 278 kts | 155° |
| 2026-04-21 11:21 | 50.15057 | 11.79979 | 23187 ft | 277 kts | 155° |
| 2026-04-21 11:21 | 50.13276 | 11.81140 | 23188 ft | 277 kts | 155° |
| 2026-04-21 11:21 | 50.11498 | 11.82296 | 23188 ft | 277 kts | 156° |
| 2026-04-21 11:22 | 50.09729 | 11.83446 | 23193 ft | 274 kts | 155° |
| 2026-04-21 11:22 | 50.07973 | 11.84592 | 23192 ft | 273 kts | 156° |
| 2026-04-21 11:22 | 50.06220 | 11.85732 | 23192 ft | 273 kts | 155° |
| 2026-04-21 11:22 | 50.04467 | 11.86869 | 23189 ft | 273 kts | 155° |
| 2026-04-21 11:23 | 50.02713 | 11.88008 | 23186 ft | 272 kts | 156° |
| 2026-04-21 11:23 | 50.00961 | 11.89143 | 23183 ft | 274 kts | 156° |
| 2026-04-21 11:23 | 49.99199 | 11.90283 | 23184 ft | 274 kts | 156° |
| 2026-04-21 11:23 | 49.97444 | 11.91419 | 23191 ft | 273 kts | 156° |
| 2026-04-21 11:24 | 49.95710 | 11.92541 | 23183 ft | 273 kts | 157° |
| 2026-04-21 11:24 | 49.93959 | 11.93674 | 23182 ft | 272 kts | 157° |
| 2026-04-21 11:24 | 49.92212 | 11.94808 | 23183 ft | 272 kts | 156° |
| 2026-04-21 11:24 | 49.90467 | 11.95944 | 23169 ft | 272 kts | 156° |
| 2026-04-21 11:25 | 49.88715 | 11.97080 | 23165 ft | 273 kts | 156° |
| 2026-04-21 11:25 | 49.86956 | 11.98219 | 23162 ft | 275 kts | 156° |
| 2026-04-21 11:25 | 49.85188 | 11.99362 | 23163 ft | 275 kts | 156° |
| 2026-04-21 11:25 | 49.83425 | 12.00501 | 23165 ft | 274 kts | 156° |
| 2026-04-21 11:26 | 49.81664 | 12.01631 | 23163 ft | 274 kts | 157° |
| 2026-04-21 11:26 | 49.79905 | 12.02762 | 23160 ft | 273 kts | 156° |
| 2026-04-21 11:26 | 49.78148 | 12.03890 | 23157 ft | 274 kts | 157° |
| 2026-04-21 11:26 | 49.76388 | 12.05019 | 23157 ft | 274 kts | 157° |
| 2026-04-21 11:27 | 49.74627 | 12.06148 | 23153 ft | 274 kts | 157° |
| 2026-04-21 11:27 | 49.72861 | 12.07279 | 23155 ft | 275 kts | 157° |
| 2026-04-21 11:27 | 49.71104 | 12.08426 | 23154 ft | 273 kts | 153° |
| 2026-04-21 11:27 | 49.69564 | 12.10094 | 23158 ft | 270 kts | 140° |
| 2026-04-21 11:28 | 49.68106 | 12.11913 | 23163 ft | 270 kts | 140° |
| 2026-04-21 11:28 | 49.66659 | 12.13705 | 23166 ft | 270 kts | 140° |
| 2026-04-21 11:28 | 49.65171 | 12.15536 | 23166 ft | 270 kts | 140° |
| 2026-04-21 11:28 | 49.63718 | 12.17324 | 23166 ft | 271 kts | 140° |
| 2026-04-21 11:29 | 49.62242 | 12.19141 | 23177 ft | 271 kts | 140° |
| 2026-04-21 11:29 | 49.60766 | 12.20959 | 23180 ft | 271 kts | 140° |
| 2026-04-21 11:29 | 49.59287 | 12.22776 | 23173 ft | 274 kts | 140° |
| 2026-04-21 11:29 | 49.57793 | 12.24612 | 23174 ft | 275 kts | 140° |
| 2026-04-21 11:30 | 49.56294 | 12.26451 | 23172 ft | 275 kts | 140° |
| 2026-04-21 11:30 | 49.54795 | 12.28289 | 23175 ft | 275 kts | 141° |
| 2026-04-21 11:30 | 49.53300 | 12.30121 | 23170 ft | 274 kts | 141° |
| 2026-04-21 11:30 | 49.51806 | 12.31950 | 23168 ft | 274 kts | 141° |
| 2026-04-21 11:31 | 49.50313 | 12.33776 | 23170 ft | 274 kts | 141° |
| 2026-04-21 11:31 | 49.48820 | 12.35601 | 23172 ft | 274 kts | 141° |
| 2026-04-21 11:31 | 49.47331 | 12.37420 | 23173 ft | 273 kts | 141° |
| 2026-04-21 11:31 | 49.45842 | 12.39237 | 23172 ft | 273 kts | 141° |
| 2026-04-21 11:32 | 49.44351 | 12.41055 | 23169 ft | 274 kts | 141° |
| 2026-04-21 11:32 | 49.42858 | 12.42874 | 23166 ft | 274 kts | 141° |
| 2026-04-21 11:32 | 49.41364 | 12.44693 | 23167 ft | 274 kts | 141° |
| 2026-04-21 11:32 | 49.39871 | 12.46509 | 23165 ft | 274 kts | 141° |
| 2026-04-21 11:33 | 49.38394 | 12.48305 | 23165 ft | 275 kts | 141° |
| 2026-04-21 11:33 | 49.36895 | 12.50125 | 23165 ft | 275 kts | 141° |
| 2026-04-21 11:33 | 49.35394 | 12.51946 | 23166 ft | 275 kts | 141° |
| 2026-04-21 11:33 | 49.33797 | 12.53503 | 23166 ft | 273 kts | 160° |
| 2026-04-21 11:34 | 49.31949 | 12.54059 | 23173 ft | 271 kts | 181° |
| 2026-04-21 11:34 | 49.30067 | 12.53985 | 23178 ft | 271 kts | 184° |
| 2026-04-21 11:34 | 49.28176 | 12.53873 | 23168 ft | 272 kts | 184° |
| 2026-04-21 11:34 | 49.26281 | 12.53771 | 23170 ft | 272 kts | 184° |
| 2026-04-21 11:35 | 49.24393 | 12.53680 | 23168 ft | 271 kts | 184° |
| 2026-04-21 11:35 | 49.22509 | 12.53589 | 23168 ft | 270 kts | 184° |
| 2026-04-21 11:35 | 49.20627 | 12.53494 | 23168 ft | 270 kts | 184° |
| 2026-04-21 11:35 | 49.18746 | 12.53398 | 23167 ft | 270 kts | 184° |
| 2026-04-21 11:36 | 49.16864 | 12.53305 | 23167 ft | 270 kts | 184° |
| 2026-04-21 11:36 | 49.14984 | 12.53211 | 23167 ft | 270 kts | 184° |
| 2026-04-21 11:36 | 49.13104 | 12.53118 | 23167 ft | 270 kts | 184° |
| 2026-04-21 11:36 | 49.11228 | 12.53024 | 23166 ft | 270 kts | 184° |
| 2026-04-21 11:37 | 49.09348 | 12.52930 | 23162 ft | 270 kts | 184° |
| 2026-04-21 11:37 | 49.07467 | 12.52837 | 23162 ft | 270 kts | 184° |
| 2026-04-21 11:37 | 49.05584 | 12.52743 | 23154 ft | 270 kts | 184° |
| 2026-04-21 11:37 | 49.03736 | 12.52636 | 23152 ft | 268 kts | 187° |
| 2026-04-21 11:38 | 49.01876 | 12.52440 | 23152 ft | 268 kts | 185° |
| 2026-04-21 11:38 | 49.00010 | 12.52346 | 23150 ft | 268 kts | 184° |
| 2026-04-21 11:38 | 48.98150 | 12.52229 | 23150 ft | 268 kts | 185° |
| 2026-04-21 11:38 | 48.96287 | 12.52076 | 23151 ft | 268 kts | 186° |
| 2026-04-21 11:39 | 48.94424 | 12.51925 | 23151 ft | 268 kts | 185° |
| 2026-04-21 11:39 | 48.92556 | 12.51782 | 23152 ft | 268 kts | 185° |
| 2026-04-21 11:39 | 48.90692 | 12.51642 | 23152 ft | 268 kts | 185° |
| 2026-04-21 11:39 | 48.88825 | 12.51499 | 23152 ft | 269 kts | 185° |
| 2026-04-21 11:40 | 48.87586 | 12.51404 | 23153 ft | 269 kts | 185° |
| 2026-04-21 11:40 | 48.85717 | 12.51261 | 23153 ft | 269 kts | 185° |
| 2026-04-21 11:40 | 48.83849 | 12.51118 | 23144 ft | 269 kts | 186° |
| 2026-04-21 11:40 | 48.81984 | 12.50975 | 23147 ft | 269 kts | 186° |
| 2026-04-21 11:41 | 48.80116 | 12.50833 | 23141 ft | 269 kts | 186° |
| 2026-04-21 11:41 | 48.78244 | 12.50690 | 23144 ft | 269 kts | 186° |
| 2026-04-21 11:41 | 48.76375 | 12.50548 | 23145 ft | 269 kts | 185° |
| 2026-04-21 11:41 | 48.74505 | 12.50405 | 23151 ft | 269 kts | 185° |
| 2026-04-21 11:42 | 48.72632 | 12.50263 | 23155 ft | 269 kts | 186° |
| 2026-04-21 11:42 | 48.70760 | 12.50120 | 23154 ft | 269 kts | 185° |
| 2026-04-21 11:42 | 48.68887 | 12.49978 | 23156 ft | 269 kts | 185° |
| 2026-04-21 11:42 | 48.67013 | 12.49835 | 23156 ft | 270 kts | 186° |
| 2026-04-21 11:43 | 48.65161 | 12.49695 | 23152 ft | 270 kts | 185° |
| 2026-04-21 11:43 | 48.63285 | 12.49553 | 23152 ft | 269 kts | 185° |
| 2026-04-21 11:43 | 48.61417 | 12.49411 | 23149 ft | 269 kts | 185° |
| 2026-04-21 11:43 | 48.59542 | 12.49269 | 23148 ft | 269 kts | 185° |
| 2026-04-21 11:44 | 48.57672 | 12.49128 | 23144 ft | 269 kts | 185° |
| 2026-04-21 11:44 | 48.55804 | 12.48986 | 23145 ft | 269 kts | 185° |
| 2026-04-21 11:44 | 48.53935 | 12.48845 | 23144 ft | 269 kts | 185° |
| 2026-04-21 11:44 | 48.52071 | 12.48705 | 23145 ft | 269 kts | 185° |
| 2026-04-21 11:45 | 48.50200 | 12.48564 | 23144 ft | 269 kts | 185° |
| 2026-04-21 11:45 | 48.48330 | 12.48423 | 23147 ft | 269 kts | 185° |
| 2026-04-21 11:45 | 48.46463 | 12.48282 | 23147 ft | 268 kts | 185° |
| 2026-04-21 11:45 | 48.44616 | 12.48034 | 23145 ft | 264 kts | 197° |
| 2026-04-21 11:46 | 48.42972 | 12.46913 | 23160 ft | 258 kts | 219° |
| 2026-04-21 11:46 | 48.41596 | 12.45208 | 23162 ft | 256 kts | 224° |
| 2026-04-21 11:46 | 48.40239 | 12.43457 | 23146 ft | 257 kts | 223° |
| 2026-04-21 11:46 | 48.38876 | 12.41707 | 23149 ft | 258 kts | 223° |
| 2026-04-21 11:47 | 48.37503 | 12.39958 | 23154 ft | 259 kts | 223° |
| 2026-04-21 11:47 | 48.36128 | 12.38205 | 23156 ft | 259 kts | 223° |
| 2026-04-21 11:47 | 48.34754 | 12.36454 | 23157 ft | 259 kts | 223° |
| 2026-04-21 11:47 | 48.33378 | 12.34700 | 23158 ft | 259 kts | 223° |
| 2026-04-21 11:48 | 48.32001 | 12.32947 | 23160 ft | 260 kts | 223° |
| 2026-04-21 11:48 | 48.30620 | 12.31190 | 23159 ft | 260 kts | 223° |
| 2026-04-21 11:48 | 48.29239 | 12.29434 | 23160 ft | 260 kts | 223° |
| 2026-04-21 11:48 | 48.27855 | 12.27676 | 23160 ft | 260 kts | 223° |
| 2026-04-21 11:49 | 48.26493 | 12.25947 | 23157 ft | 260 kts | 223° |
| 2026-04-21 11:49 | 48.25110 | 12.24193 | 23155 ft | 260 kts | 223° |
| 2026-04-21 11:49 | 48.23727 | 12.22440 | 23156 ft | 260 kts | 223° |
| 2026-04-21 11:49 | 48.22340 | 12.20683 | 23156 ft | 260 kts | 223° |
| 2026-04-21 11:50 | 48.20955 | 12.18930 | 23156 ft | 260 kts | 223° |
| 2026-04-21 11:50 | 48.19571 | 12.17179 | 23157 ft | 260 kts | 223° |
| 2026-04-21 11:50 | 48.18188 | 12.15430 | 23158 ft | 260 kts | 223° |
| 2026-04-21 11:50 | 48.16804 | 12.13683 | 23153 ft | 260 kts | 223° |
| 2026-04-21 11:51 | 48.15418 | 12.11934 | 23156 ft | 260 kts | 223° |
| 2026-04-21 11:51 | 48.14036 | 12.10191 | 23157 ft | 260 kts | 223° |
| 2026-04-21 11:51 | 48.12651 | 12.08446 | 23156 ft | 260 kts | 223° |
| 2026-04-21 11:51 | 48.11283 | 12.06724 | 23156 ft | 260 kts | 223° |
| 2026-04-21 11:52 | 48.09898 | 12.04980 | 23150 ft | 260 kts | 223° |
| 2026-04-21 11:52 | 48.08514 | 12.03240 | 23150 ft | 260 kts | 223° |
| 2026-04-21 11:52 | 48.07128 | 12.01498 | 23149 ft | 260 kts | 223° |
| 2026-04-21 11:52 | 48.05742 | 11.99759 | 23149 ft | 260 kts | 223° |
| 2026-04-21 11:53 | 48.04354 | 11.98017 | 23128 ft | 260 kts | 223° |
| 2026-04-21 11:53 | 48.02970 | 11.96282 | 23127 ft | 260 kts | 223° |
| 2026-04-21 11:53 | 48.01578 | 11.94537 | 23126 ft | 261 kts | 223° |
| 2026-04-21 11:53 | 48.00184 | 11.92792 | 23125 ft | 261 kts | 223° |
| 2026-04-21 11:54 | 47.98789 | 11.91047 | 23123 ft | 262 kts | 223° |
| 2026-04-21 11:54 | 47.97393 | 11.89302 | 23124 ft | 262 kts | 223° |
| 2026-04-21 11:54 | 47.95994 | 11.87554 | 23124 ft | 262 kts | 223° |
| 2026-04-21 11:54 | 47.94592 | 11.85804 | 23118 ft | 262 kts | 223° |
| 2026-04-21 11:55 | 47.93192 | 11.84058 | 23117 ft | 262 kts | 223° |
| 2026-04-21 11:55 | 47.91809 | 11.82334 | 23116 ft | 262 kts | 223° |
| 2026-04-21 11:55 | 47.90337 | 11.80680 | 23113 ft | 263 kts | 209° |
| 2026-04-21 11:55 | 47.88582 | 11.79922 | 23125 ft | 266 kts | 186° |
| 2026-04-21 11:56 | 47.86732 | 11.79795 | 23122 ft | 266 kts | 184° |
| 2026-04-21 11:56 | 47.84877 | 11.79709 | 23126 ft | 267 kts | 184° |
| 2026-04-21 11:56 | 47.83012 | 11.79611 | 23125 ft | 268 kts | 184° |
| 2026-04-21 11:56 | 47.81141 | 11.79501 | 23114 ft | 270 kts | 184° |
| 2026-04-21 11:57 | 47.79257 | 11.79391 | 23119 ft | 271 kts | 184° |
| 2026-04-21 11:57 | 47.77396 | 11.79286 | 23112 ft | 272 kts | 183° |
| 2026-04-21 11:57 | 47.75504 | 11.79180 | 23113 ft | 272 kts | 183° |
| 2026-04-21 11:57 | 47.73609 | 11.79074 | 23116 ft | 272 kts | 183° |
| 2026-04-21 11:58 | 47.71712 | 11.78966 | 23118 ft | 272 kts | 183° |
| 2026-04-21 11:58 | 47.69824 | 11.78859 | 23105 ft | 271 kts | 183° |
| 2026-04-21 11:58 | 47.67936 | 11.78753 | 23105 ft | 272 kts | 183° |
| 2026-04-21 11:58 | 47.66041 | 11.78647 | 23106 ft | 273 kts | 183° |
| 2026-04-21 11:59 | 47.64141 | 11.78539 | 23109 ft | 273 kts | 183° |
| 2026-04-21 11:59 | 47.62242 | 11.78432 | 23105 ft | 273 kts | 184° |
| 2026-04-21 11:59 | 47.60343 | 11.78325 | 23101 ft | 273 kts | 184° |
| 2026-04-21 11:59 | 47.58443 | 11.78219 | 23098 ft | 273 kts | 184° |
| 2026-04-21 12:00 | 47.56572 | 11.78114 | 23100 ft | 272 kts | 184° |
| 2026-04-21 12:00 | 47.54675 | 11.78007 | 23107 ft | 273 kts | 184° |
| 2026-04-21 12:00 | 47.52779 | 11.77901 | 23100 ft | 272 kts | 184° |
| 2026-04-21 12:00 | 47.50883 | 11.77795 | 23099 ft | 272 kts | 184° |
| 2026-04-21 12:01 | 47.48991 | 11.77689 | 23102 ft | 272 kts | 184° |
| 2026-04-21 12:01 | 47.47098 | 11.77583 | 23102 ft | 273 kts | 184° |
| 2026-04-21 12:01 | 47.45192 | 11.77477 | 23100 ft | 273 kts | 184° |
| 2026-04-21 12:01 | 47.43293 | 11.77370 | 23093 ft | 272 kts | 184° |
| 2026-04-21 12:02 | 47.41403 | 11.77264 | 23093 ft | 272 kts | 184° |
| 2026-04-21 12:02 | 47.37624 | 11.77054 | 23080 ft | 272 kts | 187° |
| 2026-04-21 12:02 | 47.35751 | 11.76949 | 23078 ft | 273 kts | 187° |
| 2026-04-21 12:03 | 47.33852 | 11.76843 | 23074 ft | 273 kts | 187° |
| 2026-04-21 12:03 | 47.31951 | 11.76738 | 23078 ft | 274 kts | 187° |
| 2026-04-21 12:03 | 47.30043 | 11.76633 | 23075 ft | 274 kts | 187° |
| 2026-04-21 12:03 | 47.28134 | 11.76525 | 23076 ft | 275 kts | 187° |
| 2026-04-21 12:04 | 47.26222 | 11.76420 | 23074 ft | 275 kts | 187° |
| 2026-04-21 12:04 | 47.24307 | 11.76314 | 23071 ft | 275 kts | 187° |
| 2026-04-21 12:04 | 47.22403 | 11.76212 | 23070 ft | 273 kts | 187° |
| 2026-04-21 12:04 | 47.20508 | 11.76104 | 23068 ft | 273 kts | 187° |
| 2026-04-21 12:05 | 47.18612 | 11.75997 | 23056 ft | 272 kts | 189° |
| 2026-04-21 12:05 | 47.16717 | 11.75893 | 23053 ft | 272 kts | 189° |
| 2026-04-21 12:05 | 47.14817 | 11.75789 | 23054 ft | 273 kts | 189° |
| 2026-04-21 12:05 | 47.12918 | 11.75682 | 23061 ft | 273 kts | 189° |
| 2026-04-21 12:06 | 47.11040 | 11.75583 | 23042 ft | 273 kts | 189° |
| 2026-04-21 12:06 | 47.09146 | 11.75484 | 23044 ft | 271 kts | 189° |
| 2026-04-21 12:06 | 47.07276 | 11.75384 | 23043 ft | 267 kts | 189° |
| 2026-04-21 12:06 | 47.05416 | 11.75281 | 23048 ft | 268 kts | 189° |
| 2026-04-21 12:07 | 47.03543 | 11.75183 | 23049 ft | 269 kts | 189° |
| 2026-04-21 12:07 | 47.01670 | 11.75078 | 23028 ft | 268 kts | 191° |
| 2026-04-21 12:07 | 46.99833 | 11.74762 | 23031 ft | 266 kts | 193° |
| 2026-04-21 12:07 | 46.97976 | 11.74491 | 23025 ft | 269 kts | 195° |
| 2026-04-21 12:08 | 46.96109 | 11.74219 | 23028 ft | 270 kts | 196° |
| 2026-04-21 12:08 | 46.94238 | 11.73928 | 23015 ft | 269 kts | 196° |
| 2026-04-21 12:08 | 46.92370 | 11.73629 | 23020 ft | 271 kts | 196° |
| 2026-04-21 12:08 | 46.90483 | 11.73332 | 23013 ft | 274 kts | 196° |
| 2026-04-21 12:09 | 46.88588 | 11.73040 | 23015 ft | 274 kts | 196° |
| 2026-04-21 12:09 | 46.86716 | 11.72789 | 23011 ft | 268 kts | 197° |
| 2026-04-21 12:09 | 46.84863 | 11.72460 | 22986 ft | 269 kts | 197° |
| 2026-04-21 12:09 | 46.82987 | 11.72155 | 23002 ft | 274 kts | 196° |
| 2026-04-21 12:10 | 46.81089 | 11.71867 | 22985 ft | 278 kts | 195° |
| 2026-04-21 12:10 | 46.79173 | 11.71582 | 22990 ft | 276 kts | 196° |
| 2026-04-21 12:10 | 46.77268 | 11.71287 | 22964 ft | 275 kts | 198° |
| 2026-04-21 12:10 | 46.75362 | 11.70986 | 22958 ft | 276 kts | 198° |
| 2026-04-21 12:11 | 46.73451 | 11.70689 | 22969 ft | 277 kts | 198° |
| 2026-04-21 12:11 | 46.71529 | 11.70392 | 22963 ft | 277 kts | 198° |
| 2026-04-21 12:11 | 46.69610 | 11.70097 | 22942 ft | 277 kts | 198° |
| 2026-04-21 12:11 | 46.67691 | 11.69802 | 22942 ft | 277 kts | 198° |
| 2026-04-21 12:12 | 46.65807 | 11.69513 | 22950 ft | 275 kts | 198° |
| 2026-04-21 12:12 | 46.63902 | 11.69215 | 22938 ft | 274 kts | 198° |
| 2026-04-21 12:12 | 46.62006 | 11.68922 | 22935 ft | 275 kts | 198° |
| 2026-04-21 12:12 | 46.60109 | 11.68647 | 22927 ft | 272 kts | 197° |
| 2026-04-21 12:13 | 46.58236 | 11.68347 | 22927 ft | 271 kts | 198° |
| 2026-04-21 12:13 | 46.56366 | 11.68049 | 22922 ft | 271 kts | 198° |
| 2026-04-21 12:13 | 46.54479 | 11.67758 | 22920 ft | 273 kts | 198° |
| 2026-04-21 12:13 | 46.52586 | 11.67473 | 22918 ft | 274 kts | 198° |
| 2026-04-21 12:14 | 46.50687 | 11.67182 | 22922 ft | 275 kts | 198° |
| 2026-04-21 12:14 | 46.48787 | 11.66889 | 22928 ft | 275 kts | 198° |
| 2026-04-21 12:14 | 46.46883 | 11.66597 | 22928 ft | 275 kts | 198° |
| 2026-04-21 12:14 | 46.44991 | 11.66310 | 22915 ft | 272 kts | 198° |
| 2026-04-21 12:15 | 46.43115 | 11.66025 | 22919 ft | 270 kts | 198° |
| 2026-04-21 12:15 | 46.41258 | 11.65739 | 22925 ft | 268 kts | 199° |
| 2026-04-21 12:15 | 46.39407 | 11.65452 | 22943 ft | 268 kts | 199° |
| 2026-04-21 12:15 | 46.37551 | 11.65169 | 22928 ft | 268 kts | 198° |
| 2026-04-21 12:16 | 46.35704 | 11.64888 | 22952 ft | 268 kts | 198° |
| 2026-04-21 12:16 | 46.33834 | 11.64598 | 22951 ft | 271 kts | 198° |
| 2026-04-21 12:16 | 46.31977 | 11.64320 | 22945 ft | 270 kts | 198° |
| 2026-04-21 12:16 | 46.30110 | 11.64036 | 22952 ft | 270 kts | 199° |
| 2026-04-21 12:17 | 46.28241 | 11.63748 | 22950 ft | 270 kts | 198° |
| 2026-04-21 12:17 | 46.26367 | 11.63461 | 22957 ft | 270 kts | 199° |
| 2026-04-21 12:17 | 46.24487 | 11.63176 | 22945 ft | 272 kts | 198° |
| 2026-04-21 12:17 | 46.22605 | 11.62892 | 22943 ft | 272 kts | 198° |
| 2026-04-21 12:18 | 46.20721 | 11.62606 | 22940 ft | 272 kts | 198° |
| 2026-04-21 12:18 | 46.18862 | 11.62350 | 22930 ft | 262 kts | 198° |
| 2026-04-21 12:18 | 46.17074 | 11.62065 | 22942 ft | 257 kts | 200° |
| 2026-04-21 12:18 | 46.15289 | 11.61775 | 22941 ft | 259 kts | 199° |
| 2026-04-21 12:19 | 46.13490 | 11.61502 | 22947 ft | 261 kts | 199° |
| 2026-04-21 12:19 | 46.11699 | 11.61285 | 22955 ft | 258 kts | 199° |
| 2026-04-21 12:19 | 46.09924 | 11.60970 | 22951 ft | 255 kts | 200° |
| 2026-04-21 12:19 | 46.08165 | 11.60685 | 22949 ft | 260 kts | 199° |
| 2026-04-21 12:20 | 46.06367 | 11.60427 | 22964 ft | 261 kts | 199° |
| 2026-04-21 12:20 | 46.04554 | 11.60158 | 22962 ft | 263 kts | 199° |
| 2026-04-21 12:20 | 46.02735 | 11.59884 | 22971 ft | 264 kts | 199° |
| 2026-04-21 12:20 | 46.00895 | 11.59603 | 22966 ft | 267 kts | 199° |
| 2026-04-21 12:21 | 45.99048 | 11.59326 | 22965 ft | 267 kts | 198° |
| 2026-04-21 12:21 | 45.97210 | 11.59054 | 22924 ft | 263 kts | 198° |
| 2026-04-21 12:21 | 45.95362 | 11.58769 | 22469 ft | 273 kts | 198° |
| 2026-04-21 12:21 | 45.93457 | 11.58474 | 22059 ft | 278 kts | 197° |
| 2026-04-21 12:22 | 45.91523 | 11.58191 | 21659 ft | 279 kts | 197° |
| 2026-04-21 12:22 | 45.89588 | 11.57906 | 21280 ft | 280 kts | 197° |
| 2026-04-21 12:22 | 45.87653 | 11.57614 | 20898 ft | 280 kts | 196° |
| 2026-04-21 12:22 | 45.85705 | 11.57320 | 20517 ft | 281 kts | 196° |
| 2026-04-21 12:23 | 45.83764 | 11.57030 | 20148 ft | 281 kts | 196° |
| 2026-04-21 12:23 | 45.81815 | 11.56740 | 19775 ft | 280 kts | 195° |
| 2026-04-21 12:23 | 45.80530 | 11.56547 | 19521 ft | 279 kts | 195° |
| 2026-04-21 12:23 | 45.77984 | 11.56168 | 19025 ft | 277 kts | 194° |
| 2026-04-21 12:24 | 45.76064 | 11.55879 | 18663 ft | 277 kts | 194° |
| 2026-04-21 12:24 | 45.74151 | 11.55593 | 18309 ft | 277 kts | 194° |
| 2026-04-21 12:24 | 45.72230 | 11.55306 | 17900 ft | 276 kts | 194° |
| 2026-04-21 12:24 | 45.70323 | 11.55022 | 17498 ft | 275 kts | 193° |
| 2026-04-21 12:25 | 45.68420 | 11.54739 | 17102 ft | 275 kts | 193° |
| 2026-04-21 12:25 | 45.66520 | 11.54455 | 16709 ft | 274 kts | 193° |
| 2026-04-21 12:25 | 45.64623 | 11.54173 | 16324 ft | 273 kts | 193° |
| 2026-04-21 12:25 | 45.62732 | 11.53892 | 15940 ft | 273 kts | 192° |
| 2026-04-21 12:26 | 45.60849 | 11.53612 | 15559 ft | 272 kts | 192° |
| 2026-04-21 12:26 | 45.58969 | 11.53332 | 15183 ft | 271 kts | 192° |
| 2026-04-21 12:26 | 45.57729 | 11.53149 | 14929 ft | 271 kts | 192° |
| 2026-04-21 12:26 | 45.55854 | 11.52870 | 14563 ft | 271 kts | 192° |
| 2026-04-21 12:27 | 45.53977 | 11.52592 | 14197 ft | 272 kts | 191° |
| 2026-04-21 12:27 | 45.51479 | 11.52222 | 13716 ft | 269 kts | 191° |
| 2026-04-21 12:27 | 45.49679 | 11.51960 | 13305 ft | 252 kts | 191° |
| 2026-04-21 12:27 | 45.48536 | 11.51792 | 13027 ft | 246 kts | 191° |
| 2026-04-21 12:28 | 45.46831 | 11.51534 | 12629 ft | 248 kts | 191° |
| 2026-04-21 12:28 | 45.45114 | 11.51277 | 12232 ft | 248 kts | 189° |
| 2026-04-21 12:28 | 45.43398 | 11.51025 | 11848 ft | 248 kts | 189° |
| 2026-04-21 12:28 | 45.41685 | 11.50925 | 11460 ft | 248 kts | 174° |
| 2026-04-21 12:29 | 45.40062 | 11.51780 | 11081 ft | 252 kts | 149° |
| 2026-04-21 12:29 | 45.38823 | 11.53526 | 10719 ft | 251 kts | 123° |
| 2026-04-21 12:29 | 45.37894 | 11.55623 | 10353 ft | 250 kts | 121° |
| 2026-04-21 12:29 | 45.36986 | 11.57727 | 9995 ft | 250 kts | 121° |
| 2026-04-21 12:30 | 45.36071 | 11.59819 | 9609 ft | 248 kts | 121° |
| 2026-04-21 12:30 | 45.35159 | 11.61884 | 9210 ft | 245 kts | 121° |
| 2026-04-21 12:30 | 45.34254 | 11.63936 | 8820 ft | 243 kts | 122° |
| 2026-04-21 12:30 | 45.33373 | 11.65938 | 8442 ft | 241 kts | 121° |
| 2026-04-21 12:31 | 45.32488 | 11.67944 | 8058 ft | 239 kts | 122° |
| 2026-04-21 12:31 | 45.31613 | 11.69926 | 7679 ft | 235 kts | 122° |
| 2026-04-21 12:31 | 45.30754 | 11.71874 | 7307 ft | 230 kts | 122° |
| 2026-04-21 12:31 | 45.29927 | 11.73745 | 6926 ft | 217 kts | 122° |
| 2026-04-21 12:32 | 45.29145 | 11.75513 | 6548 ft | 206 kts | 123° |
| 2026-04-21 12:32 | 45.28400 | 11.77196 | 6159 ft | 197 kts | 122° |
| 2026-04-21 12:32 | 45.27684 | 11.78815 | 5761 ft | 189 kts | 122° |
| 2026-04-21 12:32 | 45.26994 | 11.80372 | 5373 ft | 184 kts | 122° |
| 2026-04-21 12:33 | 45.26321 | 11.81889 | 4989 ft | 180 kts | 122° |
| 2026-04-21 12:33 | 45.25659 | 11.83383 | 4643 ft | 175 kts | 122° |
| 2026-04-21 12:33 | 45.25030 | 11.84799 | 4422 ft | 165 kts | 121° |
| 2026-04-21 12:33 | 45.24423 | 11.86170 | 4205 ft | 165 kts | 121° |
| 2026-04-21 12:34 | 45.23801 | 11.87573 | 4008 ft | 173 kts | 121° |
| 2026-04-21 12:34 | 45.23152 | 11.89037 | 3999 ft | 178 kts | 121° |
| 2026-04-21 12:34 | 45.22486 | 11.90535 | 4001 ft | 180 kts | 121° |
| 2026-04-21 12:34 | 45.22038 | 11.92155 | 4000 ft | 179 kts | 94° |
| 2026-04-21 12:35 | 45.22288 | 11.93881 | 3997 ft | 183 kts | 63° |
| 2026-04-21 12:35 | 45.22965 | 11.95407 | 4000 ft | 184 kts | 59° |
| 2026-04-21 12:35 | 45.23658 | 11.96931 | 3995 ft | 184 kts | 60° |
| 2026-04-21 12:35 | 45.24350 | 11.98464 | 3997 ft | 185 kts | 59° |
| 2026-04-21 12:36 | 45.25043 | 12.00008 | 3995 ft | 185 kts | 60° |
| 2026-04-21 12:36 | 45.25736 | 12.01548 | 3995 ft | 185 kts | 60° |
| 2026-04-21 12:36 | 45.26432 | 12.03095 | 4001 ft | 186 kts | 60° |
| 2026-04-21 12:36 | 45.27126 | 12.04643 | 3993 ft | 185 kts | 60° |
| 2026-04-21 12:37 | 45.27823 | 12.06149 | 3990 ft | 185 kts | 54° |
| 2026-04-21 12:37 | 45.28772 | 12.07413 | 3890 ft | 191 kts | 44° |
| 2026-04-21 12:37 | 45.29797 | 12.08691 | 3702 ft | 194 kts | 45° |
| 2026-04-21 12:37 | 45.30816 | 12.09990 | 3500 ft | 199 kts | 45° |
| 2026-04-21 12:38 | 45.31832 | 12.11275 | 3309 ft | 196 kts | 45° |
| 2026-04-21 12:38 | 45.32852 | 12.12574 | 3120 ft | 198 kts | 45° |
| 2026-04-21 12:38 | 45.33892 | 12.13904 | 2989 ft | 202 kts | 45° |
| 2026-04-21 12:38 | 45.34916 | 12.15208 | 2987 ft | 193 kts | 44° |
| 2026-04-21 12:39 | 45.35899 | 12.16459 | 2974 ft | 188 kts | 44° |
| 2026-04-21 12:39 | 45.36870 | 12.17683 | 2972 ft | 185 kts | 44° |
| 2026-04-21 12:39 | 45.37839 | 12.18897 | 2973 ft | 185 kts | 44° |
| 2026-04-21 12:39 | 45.38774 | 12.20069 | 2951 ft | 174 kts | 45° |
| 2026-04-21 12:40 | 45.39659 | 12.21204 | 2727 ft | 170 kts | 45° |
| 2026-04-21 12:40 | 45.40535 | 12.22332 | 2513 ft | 167 kts | 43° |
| 2026-04-21 12:40 | 45.41378 | 12.23406 | 2293 ft | 159 kts | 45° |
| 2026-04-21 12:40 | 45.42177 | 12.24415 | 2113 ft | 148 kts | 45° |
| 2026-04-21 12:41 | 45.42882 | 12.25401 | 1890 ft | 137 kts | 46° |
| 2026-04-21 12:41 | 45.43568 | 12.26245 | 1709 ft | 123 kts | 47° |
| 2026-04-21 12:41 | 45.44152 | 12.26988 | 1481 ft | 111 kts | 43° |
| 2026-04-21 12:41 | 45.44703 | 12.27709 | 1222 ft | 102 kts | 48° |
| 2026-04-21 12:42 | 45.45238 | 12.28369 | 1058 ft | 104 kts | 47° |
| 2026-04-21 12:42 | 45.45772 | 12.29112 | 986 ft | 111 kts | 48° |
| 2026-04-21 12:42 | 45.46365 | 12.29836 | 848 ft | 114 kts | 46° |
| 2026-04-21 12:42 | 45.46961 | 12.30635 | 696 ft | 119 kts | 47° |
| 2026-04-21 12:43 | 45.47588 | 12.31407 | 530 ft | 118 kts | 45° |
| 2026-04-21 12:43 | 45.48187 | 12.32167 | 355 ft | 110 kts | 49° |
| 2026-04-21 12:43 | 45.48747 | 12.32914 | 266 ft | 113 kts | 47° |
| 2026-04-21 12:43 | 45.49338 | 12.33680 | 68 ft | 114 kts | 46° |
| 2026-04-21 12:44 | 45.49876 | 12.34364 | 12 ft | 90 kts | 47° |
| 2026-04-21 12:44 | 45.50268 | 12.34872 | 10 ft | 58 kts | 41° |
| 2026-04-21 12:44 | 45.50400 | 12.35031 | 8 ft | 12 kts | 21° |
| 2026-04-21 12:44 | 45.50413 | 12.34950 | 9 ft | 17 kts | 252° |
| 2026-04-21 12:45 | 45.50365 | 12.34743 | 11 ft | 21 kts | 252° |
| 2026-04-21 12:45 | 45.50289 | 12.34553 | 12 ft | 24 kts | 223° |
| 2026-04-21 12:45 | 45.50169 | 12.34391 | 11 ft | 19 kts | 231° |
| 2026-04-21 12:45 | 45.50145 | 12.34191 | 11 ft | 24 kts | 250° |
| 2026-04-21 12:46 | 45.50011 | 12.33989 | 11 ft | 32 kts | 223° |
| 2026-04-21 12:46 | 45.49881 | 12.33825 | 11 ft | 18 kts | 220° |
| 2026-04-21 12:46 | 45.49814 | 12.33738 | 11 ft | 14 kts | 221° |
| 2026-04-21 12:46 | 45.49733 | 12.33638 | 11 ft | 11 kts | 220° |
| 2026-04-21 12:47 | 45.49744 | 12.33673 | 12 ft | 13 kts | 22° |
| 2026-04-21 12:47 | 45.49819 | 12.33720 | 11 ft | 10 kts | 330° |
| 2026-04-21 12:47 | 45.49852 | 12.33685 | 11 ft | 4 kts | 48° |
| 2026-04-21 12:47 | 45.49866 | 12.33705 | 11 ft | 2 kts | 42° |
| 2026-04-21 12:48 | 45.49867 | 12.33705 | 11 ft | 0 kts | 42° |